Time,TemperatureF,DewpointF,PressureIn,WindDirection,WindDirectionDegrees,WindSpeedMPH,WindSpeedGustMPH,Humidity,HourlyPrecipIn,Conditions,Clouds,dailyrainin,SoftwareType,DateUTC
2013-06-26 00:00:00,82.0,76.0,30.06,NE,48,2.0,2.0,82,0.00,,,0.25,Wunderground v.1.15,2013-06-26 04:00:00,
2013-06-26 00:01:00,81.9,75.9,30.06,SE,124,2.0,2.0,82,0.00,,,0.25,Wunderground v.1.15,2013-06-26 04:01:00,
2013-06-26 00:02:00,81.9,75.9,30.06,SE,124,2.0,2.0,82,0.00,,,0.25,Wunderground v.1.15,2013-06-26 04:02:00,
2013-06-26 00:03:00,81.9,75.9,30.06,East,96,2.0,2.0,82,0.00,,,0.25,Wunderground v.1.15,2013-06-26 04:03:00,
2013-06-26 00:04:00,81.9,75.9,30.06,ESE,120,2.0,2.0,82,0.00,,,0.25,Wunderground v.1.15,2013-06-26 04:04:00,
2013-06-26 00:06:00,81.9,75.9,30.06,ESE,110,2.0,2.0,82,0.00,,,0.25,Wunderground v.1.15,2013-06-26 04:06:00,
2013-06-26 00:11:00,81.8,76.1,30.06,SE,128,1.0,4.0,83,0.00,,,0.00,Wunderground v.1.15,2013-06-26 04:11:00,
2013-06-26 00:12:00,81.8,76.1,30.06,East,92,1.0,4.0,83,0.00,,,0.00,Wunderground v.1.15,2013-06-26 04:12:00,
2013-06-26 00:16:00,81.7,76.0,30.06,SE,127,1.0,4.0,83,0.00,,,0.00,Wunderground v.1.15,2013-06-26 04:16:00,
2013-06-26 00:17:00,81.7,76.0,30.06,SSE,168,1.0,4.0,83,0.00,,,0.00,Wunderground v.1.15,2013-06-26 04:17:00,
2013-06-26 00:18:00,81.7,76.0,30.06,ESE,118,1.0,4.0,83,0.00,,,0.00,Wunderground v.1.15,2013-06-26 04:18:00,
2013-06-26 00:22:00,81.7,76.0,30.06,NE,50,2.0,5.0,83,0.00,,,0.00,Wunderground v.1.15,2013-06-26 04:22:00,
2013-06-26 00:23:00,81.7,76.0,30.06,ESE,103,2.0,5.0,83,0.00,,,0.00,Wunderground v.1.15,2013-06-26 04:23:00,
2013-06-26 00:24:00,81.7,76.0,30.06,SE,139,2.0,5.0,83,0.00,,,0.00,Wunderground v.1.15,2013-06-26 04:24:00,
2013-06-26 00:26:00,81.7,76.0,30.06,SE,127,2.0,5.0,83,0.00,,,0.00,Wunderground v.1.15,2013-06-26 04:26:00,
2013-06-26 00:27:00,81.7,76.0,30.05,East,87,2.0,5.0,83,0.00,,,0.00,Wunderground v.1.15,2013-06-26 04:27:00,
2013-06-26 00:28:00,81.7,76.0,30.06,East,94,2.0,5.0,83,0.00,,,0.00,Wunderground v.1.15,2013-06-26 04:28:00,
2013-06-26 00:29:00,81.7,76.0,30.06,East,85,2.0,5.0,83,0.00,,,0.00,Wunderground v.1.15,2013-06-26 04:29:00,
2013-06-26 00:34:00,81.7,76.0,30.05,ESE,108,1.0,7.0,83,0.00,,,0.00,Wunderground v.1.15,2013-06-26 04:34:00,
2013-06-26 00:35:00,81.7,76.0,30.05,East,81,1.0,7.0,83,0.00,,,0.00,Wunderground v.1.15,2013-06-26 04:35:00,
2013-06-26 00:38:00,81.7,76.0,30.05,SE,133,1.0,7.0,83,0.00,,,0.00,Wunderground v.1.15,2013-06-26 04:38:00,
2013-06-26 00:41:00,81.7,76.0,30.06,SE,131,1.0,7.0,83,0.00,,,0.00,Wunderground v.1.15,2013-06-26 04:41:00,
2013-06-26 00:42:00,81.7,76.0,30.06,SE,131,1.0,7.0,83,0.00,,,0.00,Wunderground v.1.15,2013-06-26 04:42:00,
2013-06-26 00:47:00,81.6,75.9,30.06,ESE,110,0.0,7.0,83,0.00,,,0.00,Wunderground v.1.15,2013-06-26 04:47:00,
2013-06-26 00:48:00,81.6,76.3,30.06,ESE,113,0.0,7.0,84,0.00,,,0.00,Wunderground v.1.15,2013-06-26 04:48:00,
2013-06-26 00:50:00,81.5,76.2,30.05,ESE,117,0.0,7.0,84,0.00,,,0.00,Wunderground v.1.15,2013-06-26 04:50:00,
2013-06-26 00:52:00,81.5,76.2,30.05,SSE,149,0.0,7.0,84,0.00,,,0.00,Wunderground v.1.15,2013-06-26 04:52:00,
2013-06-26 00:55:00,81.5,76.2,30.05,East,91,1.0,7.0,84,0.00,,,0.00,Wunderground v.1.15,2013-06-26 04:55:00,
2013-06-26 00:56:00,81.5,76.2,30.05,ESE,110,1.0,7.0,84,0.00,,,0.00,Wunderground v.1.15,2013-06-26 04:56:00,
2013-06-26 00:57:00,81.5,76.2,30.05,SE,125,1.0,7.0,84,0.00,,,0.00,Wunderground v.1.15,2013-06-26 04:57:00,
2013-06-26 01:00:00,81.5,76.2,30.05,East,99,1.0,1.0,84,0.00,,,0.00,Wunderground v.1.15,2013-06-26 05:00:00,
2013-06-26 01:03:00,81.6,76.3,30.05,ENE,70,1.0,1.0,84,0.00,,,0.00,Wunderground v.1.15,2013-06-26 05:03:00,
2013-06-26 01:04:00,81.6,75.9,30.05,East,96,1.0,1.0,83,0.00,,,0.00,Wunderground v.1.15,2013-06-26 05:04:00,
2013-06-26 01:06:00,81.6,75.9,30.05,ENE,78,1.0,1.0,83,0.00,,,0.00,Wunderground v.1.15,2013-06-26 05:06:00,
2013-06-26 01:10:00,81.5,75.8,30.05,East,91,0.0,0.0,83,0.00,,,0.00,Wunderground v.1.15,2013-06-26 05:10:00,
2013-06-26 01:11:00,81.5,75.8,30.05,SSE,153,0.0,1.0,83,0.00,,,0.00,Wunderground v.1.15,2013-06-26 05:11:00,
2013-06-26 01:13:00,81.5,76.2,30.05,ENE,77,0.0,2.0,84,0.00,,,0.00,Wunderground v.1.15,2013-06-26 05:13:00,
2013-06-26 01:15:00,81.6,75.9,30.05,SE,130,0.0,2.0,83,0.00,,,0.00,Wunderground v.1.15,2013-06-26 05:15:00,
2013-06-26 01:17:00,81.6,76.3,30.05,ENE,72,0.0,2.0,84,0.00,,,0.00,Wunderground v.1.15,2013-06-26 05:17:00,
2013-06-26 01:19:00,81.6,76.3,30.05,ENE,77,1.0,2.0,84,0.00,,,0.00,Wunderground v.1.15,2013-06-26 05:19:00,
2013-06-26 01:21:00,81.6,76.3,30.05,ENE,76,1.0,1.0,84,0.00,,,0.00,Wunderground v.1.15,2013-06-26 05:21:00,
2013-06-26 01:23:00,81.6,76.3,30.04,SE,128,1.0,1.0,84,0.00,,,0.00,Wunderground v.1.15,2013-06-26 05:23:00,
2013-06-26 01:24:00,81.6,76.3,30.04,ENE,72,1.0,2.0,84,0.00,,,0.00,Wunderground v.1.15,2013-06-26 05:24:00,
2013-06-26 01:26:00,81.6,76.3,30.04,East,84,1.0,2.0,84,0.00,,,0.00,Wunderground v.1.15,2013-06-26 05:26:00,
2013-06-26 01:29:00,81.5,76.2,30.04,East,91,1.0,2.0,84,0.00,,,0.00,Wunderground v.1.15,2013-06-26 05:29:00,
2013-06-26 01:30:00,81.5,76.2,30.04,ESE,111,1.0,1.0,84,0.00,,,0.00,Wunderground v.1.15,2013-06-26 05:30:00,
2013-06-26 01:31:00,81.5,76.2,30.04,SE,127,1.0,2.0,84,0.00,,,0.00,Wunderground v.1.15,2013-06-26 05:31:00,
2013-06-26 01:34:00,81.6,76.6,30.04,SSE,152,1.0,5.0,85,0.00,,,0.01,Wunderground v.1.15,2013-06-26 05:34:00,
2013-06-26 01:35:00,81.5,76.6,30.04,SE,137,2.0,5.0,85,0.00,,,0.01,Wunderground v.1.15,2013-06-26 05:35:00,
2013-06-26 01:36:00,81.4,76.5,30.04,SE,143,2.0,5.0,85,0.00,,,0.01,Wunderground v.1.15,2013-06-26 05:36:00,
2013-06-26 01:38:00,81.0,76.4,30.04,SE,143,2.0,5.0,86,0.00,,,0.01,Wunderground v.1.15,2013-06-26 05:38:00,
2013-06-26 01:40:00,80.4,75.1,30.04,SE,143,3.0,5.0,84,0.00,,,0.01,Wunderground v.1.15,2013-06-26 05:40:00,
2013-06-26 01:42:00,80.1,75.2,30.04,SSE,165,3.0,5.0,85,0.00,,,0.01,Wunderground v.1.15,2013-06-26 05:42:00,
2013-06-26 01:45:00,79.8,74.9,30.04,SSE,157,3.0,5.0,85,0.00,,,0.01,Wunderground v.1.15,2013-06-26 05:45:00,
2013-06-26 01:46:00,79.7,75.1,30.04,SSE,150,3.0,5.0,86,0.00,,,0.01,Wunderground v.1.15,2013-06-26 05:46:00,
2013-06-26 01:47:00,79.7,75.1,30.04,ESE,115,3.0,5.0,86,0.00,,,0.01,Wunderground v.1.15,2013-06-26 05:47:00,
2013-06-26 01:49:00,79.6,75.4,30.04,ESE,117,3.0,5.0,87,0.00,,,0.01,Wunderground v.1.15,2013-06-26 05:49:00,
2013-06-26 01:51:00,79.6,75.4,30.04,SE,129,2.0,5.0,87,0.00,,,0.01,Wunderground v.1.15,2013-06-26 05:51:00,
2013-06-26 01:55:00,79.5,75.6,30.04,SE,134,1.0,5.0,88,0.00,,,0.02,Wunderground v.1.15,2013-06-26 05:55:00,
2013-06-26 01:57:00,79.5,75.6,30.04,SE,134,1.0,5.0,88,0.00,,,0.02,Wunderground v.1.15,2013-06-26 05:57:00,
2013-06-26 01:58:00,79.5,75.6,30.04,SE,134,0.0,5.0,88,0.00,,,0.02,Wunderground v.1.15,2013-06-26 05:58:00,
2013-06-26 02:00:00,79.5,76.0,30.04,SE,140,0.0,0.0,89,0.00,,,0.02,Wunderground v.1.15,2013-06-26 06:00:00,
2013-06-26 02:02:00,79.4,75.9,30.04,ESE,105,0.0,1.0,89,0.00,,,0.02,Wunderground v.1.15,2013-06-26 06:02:00,
2013-06-26 02:04:00,79.4,75.9,30.03,ESE,114,0.0,1.0,89,0.00,,,0.02,Wunderground v.1.15,2013-06-26 06:04:00,
2013-06-26 02:06:00,79.4,75.9,30.03,SE,136,0.0,1.0,89,0.00,,,0.02,Wunderground v.1.15,2013-06-26 06:06:00,
2013-06-26 02:12:00,79.4,76.2,30.03,ESE,120,1.0,1.0,90,0.00,,,0.02,Wunderground v.1.15,2013-06-26 06:12:00,
2013-06-26 02:13:00,79.4,76.2,30.03,ESE,103,1.0,1.0,90,0.00,,,0.02,Wunderground v.1.15,2013-06-26 06:13:00,
2013-06-26 02:14:00,79.5,76.3,30.03,SE,128,1.0,1.0,90,0.00,,,0.02,Wunderground v.1.15,2013-06-26 06:14:00,
2013-06-26 02:16:00,79.5,76.3,30.02,SE,128,1.0,1.0,90,0.00,,,0.02,Wunderground v.1.15,2013-06-26 06:16:00,
2013-06-26 02:18:00,79.5,76.0,30.02,SE,124,1.0,1.0,89,0.00,,,0.02,Wunderground v.1.15,2013-06-26 06:18:00,
2013-06-26 02:20:00,79.5,76.0,30.02,ESE,108,0.0,0.0,89,0.00,,,0.02,Wunderground v.1.15,2013-06-26 06:20:00,
2013-06-26 02:21:00,79.5,76.0,30.02,ESE,108,0.0,0.0,89,0.00,,,0.02,Wunderground v.1.15,2013-06-26 06:21:00,
2013-06-26 02:22:00,79.4,75.9,30.02,East,96,0.0,1.0,89,0.00,,,0.02,Wunderground v.1.15,2013-06-26 06:22:00,
2013-06-26 02:24:00,79.4,75.9,30.02,SE,129,0.0,1.0,89,0.00,,,0.02,Wunderground v.1.15,2013-06-26 06:24:00,
2013-06-26 02:27:00,79.5,76.0,30.02,SE,128,0.0,1.0,89,0.00,,,0.02,Wunderground v.1.15,2013-06-26 06:27:00,
2013-06-26 02:30:00,79.5,76.0,30.02,SE,138,0.0,0.0,89,0.00,,,0.02,Wunderground v.1.15,2013-06-26 06:30:00,
2013-06-26 02:33:00,79.5,76.0,30.02,SE,131,0.0,9.0,89,0.00,,,0.02,Wunderground v.1.15,2013-06-26 06:33:00,
2013-06-26 02:34:00,79.5,76.0,30.02,SE,131,0.0,9.0,89,0.00,,,0.02,Wunderground v.1.15,2013-06-26 06:34:00,
2013-06-26 02:36:00,79.5,76.0,30.02,ESE,119,0.0,9.0,89,0.00,,,0.02,Wunderground v.1.15,2013-06-26 06:36:00,
2013-06-26 02:37:00,79.5,76.0,30.02,ESE,119,0.0,9.0,89,0.00,,,0.02,Wunderground v.1.15,2013-06-26 06:37:00,
2013-06-26 02:38:00,79.5,76.0,30.02,SSE,147,0.0,9.0,89,0.00,,,0.02,Wunderground v.1.15,2013-06-26 06:38:00,
2013-06-26 02:39:00,79.5,76.0,30.02,SE,132,0.0,9.0,89,0.00,,,0.02,Wunderground v.1.15,2013-06-26 06:39:00,
2013-06-26 02:42:00,79.5,75.6,30.01,SE,127,1.0,9.0,88,0.00,,,0.02,Wunderground v.1.15,2013-06-26 06:42:00,
2013-06-26 02:44:00,79.5,75.6,30.01,ESE,113,1.0,9.0,88,0.00,,,0.02,Wunderground v.1.15,2013-06-26 06:44:00,
2013-06-26 02:46:00,79.5,75.6,30.01,ESE,115,1.0,9.0,88,0.00,,,0.02,Wunderground v.1.15,2013-06-26 06:46:00,
2013-06-26 02:47:00,79.6,75.7,30.01,ESE,111,1.0,9.0,88,0.00,,,0.02,Wunderground v.1.15,2013-06-26 06:47:00,
2013-06-26 02:49:00,79.6,75.7,30.01,SE,124,2.0,9.0,88,0.00,,,0.02,Wunderground v.1.15,2013-06-26 06:49:00,
2013-06-26 02:50:00,79.6,75.7,30.01,ESE,119,1.0,9.0,88,0.00,,,0.02,Wunderground v.1.15,2013-06-26 06:50:00,
2013-06-26 02:52:00,79.7,75.5,30.01,ESE,122,1.0,9.0,87,0.00,,,0.02,Wunderground v.1.15,2013-06-26 06:52:00,
2013-06-26 02:55:00,79.7,75.5,30.00,ESE,119,1.0,9.0,87,0.00,,,0.02,Wunderground v.1.15,2013-06-26 06:55:00,
2013-06-26 02:56:00,79.7,75.5,30.00,SE,124,1.0,9.0,87,0.00,,,0.02,Wunderground v.1.15,2013-06-26 06:56:00,
2013-06-26 02:58:00,79.7,75.5,30.00,SE,134,1.0,9.0,87,0.00,,,0.02,Wunderground v.1.15,2013-06-26 06:58:00,
2013-06-26 03:00:00,79.7,75.5,30.00,SE,141,1.0,1.0,87,0.00,,,0.02,Wunderground v.1.15,2013-06-26 07:00:00,
2013-06-26 03:01:00,79.7,75.5,30.00,SE,129,1.0,3.0,87,0.00,,,0.02,Wunderground v.1.15,2013-06-26 07:01:00,
2013-06-26 03:03:00,79.8,75.6,30.00,SE,139,1.0,3.0,87,0.00,,,0.02,Wunderground v.1.15,2013-06-26 07:03:00,
2013-06-26 03:06:00,79.9,75.7,30.00,ESE,122,1.0,3.0,87,0.00,,,0.02,Wunderground v.1.15,2013-06-26 07:06:00,
2013-06-26 03:08:00,79.9,75.7,30.00,SE,124,1.0,3.0,87,0.00,,,0.02,Wunderground v.1.15,2013-06-26 07:08:00,
2013-06-26 03:11:00,79.9,75.7,30.00,SE,134,1.0,1.0,87,0.00,,,0.02,Wunderground v.1.15,2013-06-26 07:11:00,
2013-06-26 03:13:00,79.9,75.7,30.00,SE,127,1.0,1.0,87,0.00,,,0.02,Wunderground v.1.15,2013-06-26 07:13:00,
2013-06-26 03:14:00,79.9,75.7,30.00,ESE,121,1.0,1.0,87,0.00,,,0.02,Wunderground v.1.15,2013-06-26 07:14:00,
2013-06-26 03:16:00,79.8,75.6,30.00,ESE,113,1.0,1.0,87,0.00,,,0.02,Wunderground v.1.15,2013-06-26 07:16:00,
2013-06-26 03:19:00,79.8,75.2,30.00,SE,132,1.0,1.0,86,0.00,,,0.02,Wunderground v.1.15,2013-06-26 07:19:00,
2013-06-26 03:20:00,79.8,75.2,30.00,SE,132,1.0,1.0,86,0.00,,,0.02,Wunderground v.1.15,2013-06-26 07:20:00,
2013-06-26 03:21:00,79.8,75.6,30.00,ESE,113,1.0,1.0,87,0.00,,,0.02,Wunderground v.1.15,2013-06-26 07:21:00,
2013-06-26 03:25:00,79.8,75.2,30.00,ESE,120,1.0,1.0,86,0.00,,,0.02,Wunderground v.1.15,2013-06-26 07:25:00,
2013-06-26 03:26:00,79.8,75.2,30.00,ESE,122,1.0,1.0,86,0.00,,,0.02,Wunderground v.1.15,2013-06-26 07:26:00,
2013-06-26 03:28:00,79.8,75.2,30.00,SE,136,1.0,1.0,86,0.00,,,0.02,Wunderground v.1.15,2013-06-26 07:28:00,
2013-06-26 03:32:00,79.9,75.7,30.00,SE,138,1.0,3.0,87,0.00,,,0.02,Wunderground v.1.15,2013-06-26 07:32:00,
2013-06-26 03:33:00,79.9,75.3,30.00,ESE,117,1.0,3.0,86,0.00,,,0.02,Wunderground v.1.15,2013-06-26 07:33:00,
2013-06-26 03:34:00,79.9,75.3,30.00,SE,126,1.0,3.0,86,0.00,,,0.02,Wunderground v.1.15,2013-06-26 07:34:00,
2013-06-26 03:38:00,80.0,75.4,30.00,ESE,116,1.0,3.0,86,0.00,,,0.02,Wunderground v.1.15,2013-06-26 07:38:00,
2013-06-26 03:42:00,80.1,75.5,29.99,SSE,165,2.0,3.0,86,0.00,,,0.02,Wunderground v.1.15,2013-06-26 07:42:00,
2013-06-26 03:43:00,80.1,75.5,29.99,ESE,119,2.0,3.0,86,0.00,,,0.02,Wunderground v.1.15,2013-06-26 07:43:00,
2013-06-26 03:45:00,80.2,75.6,30.00,ESE,113,2.0,3.0,86,0.00,,,0.02,Wunderground v.1.15,2013-06-26 07:45:00,
2013-06-26 03:46:00,80.2,75.6,29.99,SE,134,2.0,3.0,86,0.00,,,0.02,Wunderground v.1.15,2013-06-26 07:46:00,
2013-06-26 03:48:00,80.1,75.5,29.99,ESE,122,1.0,3.0,86,0.00,,,0.02,Wunderground v.1.15,2013-06-26 07:48:00,
2013-06-26 03:49:00,80.1,75.5,29.99,SE,146,1.0,3.0,86,0.00,,,0.02,Wunderground v.1.15,2013-06-26 07:49:00,
2013-06-26 03:53:00,80.1,75.5,29.99,ESE,106,1.0,4.0,86,0.00,,,0.02,Wunderground v.1.15,2013-06-26 07:53:00,
2013-06-26 03:54:00,80.1,75.5,29.99,SE,134,1.0,4.0,86,0.00,,,0.02,Wunderground v.1.15,2013-06-26 07:54:00,
2013-06-26 03:56:00,80.1,75.5,30.00,ESE,113,1.0,4.0,86,0.00,,,0.02,Wunderground v.1.15,2013-06-26 07:56:00,
2013-06-26 03:59:00,80.2,75.6,30.00,SE,129,1.0,4.0,86,0.00,,,0.02,Wunderground v.1.15,2013-06-26 07:59:00,
2013-06-26 04:01:00,80.2,75.6,29.99,ESE,121,2.0,2.0,86,0.00,,,0.02,Wunderground v.1.15,2013-06-26 08:01:00,
2013-06-26 04:02:00,80.2,75.6,29.99,East,99,2.0,2.0,86,0.00,,,0.02,Wunderground v.1.15,2013-06-26 08:02:00,
2013-06-26 04:05:00,80.2,75.6,30.00,ESE,108,2.0,3.0,86,0.00,,,0.02,Wunderground v.1.15,2013-06-26 08:05:00,
2013-06-26 04:08:00,80.3,75.7,30.00,East,93,2.0,3.0,86,0.00,,,0.02,Wunderground v.1.15,2013-06-26 08:08:00,
2013-06-26 04:10:00,80.3,75.7,30.00,SE,136,1.0,1.0,86,0.00,,,0.02,Wunderground v.1.15,2013-06-26 08:10:00,
2013-06-26 04:11:00,80.3,75.7,30.00,East,84,1.0,2.0,86,0.00,,,0.02,Wunderground v.1.15,2013-06-26 08:11:00,
2013-06-26 04:13:00,80.3,75.4,30.00,East,79,2.0,3.0,85,0.00,,,0.02,Wunderground v.1.15,2013-06-26 08:13:00,
2013-06-26 04:14:00,80.3,75.4,30.00,ESE,111,2.0,3.0,85,0.00,,,0.02,Wunderground v.1.15,2013-06-26 08:14:00,
2013-06-26 04:18:00,80.3,75.4,30.00,ESE,103,2.0,3.0,85,0.00,,,0.02,Wunderground v.1.15,2013-06-26 08:18:00,
2013-06-26 04:19:00,80.4,75.5,30.00,SE,131,2.0,3.0,85,0.00,,,0.02,Wunderground v.1.15,2013-06-26 08:19:00,
2013-06-26 04:21:00,80.4,75.5,30.00,ESE,122,2.0,2.0,85,0.00,,,0.02,Wunderground v.1.15,2013-06-26 08:21:00,
2013-06-26 04:22:00,80.4,75.5,30.00,SE,127,2.0,2.0,85,0.00,,,0.02,Wunderground v.1.15,2013-06-26 08:22:00,
2013-06-26 04:23:00,80.4,75.5,30.00,SE,129,2.0,2.0,85,0.00,,,0.02,Wunderground v.1.15,2013-06-26 08:23:00,
2013-06-26 04:28:00,80.5,75.6,30.00,SE,141,2.0,2.0,85,0.00,,,0.02,Wunderground v.1.15,2013-06-26 08:28:00,
2013-06-26 04:29:00,80.5,75.6,30.00,SE,138,2.0,2.0,85,0.00,,,0.02,Wunderground v.1.15,2013-06-26 08:29:00,
2013-06-26 04:32:00,80.5,75.6,30.00,SE,139,2.0,4.0,85,0.00,,,0.02,Wunderground v.1.15,2013-06-26 08:32:00,
2013-06-26 04:34:00,80.5,75.6,30.00,ESE,118,2.0,4.0,85,0.00,,,0.02,Wunderground v.1.15,2013-06-26 08:34:00,
2013-06-26 04:37:00,80.5,75.6,30.00,ESE,120,2.0,4.0,85,0.00,,,0.02,Wunderground v.1.15,2013-06-26 08:37:00,
2013-06-26 04:39:00,80.5,75.6,30.00,East,88,2.0,4.0,85,0.00,,,0.02,Wunderground v.1.15,2013-06-26 08:39:00,
2013-06-26 04:41:00,80.5,75.6,30.00,SE,134,2.0,4.0,85,0.00,,,0.02,Wunderground v.1.15,2013-06-26 08:41:00,
2013-06-26 04:42:00,80.4,75.5,30.00,SE,131,2.0,4.0,85,0.00,,,0.02,Wunderground v.1.15,2013-06-26 08:42:00,
2013-06-26 04:44:00,80.5,75.6,30.00,SE,133,2.0,4.0,85,0.00,,,0.02,Wunderground v.1.15,2013-06-26 08:44:00,
2013-06-26 04:45:00,80.4,75.5,30.00,SSE,148,2.0,4.0,85,0.00,,,0.02,Wunderground v.1.15,2013-06-26 08:45:00,
2013-06-26 04:47:00,80.4,75.5,30.00,ENE,77,2.0,4.0,85,0.00,,,0.02,Wunderground v.1.15,2013-06-26 08:47:00,
2013-06-26 04:49:00,80.4,75.5,30.00,SSE,149,2.0,4.0,85,0.00,,,0.02,Wunderground v.1.15,2013-06-26 08:49:00,
2013-06-26 04:52:00,80.4,75.8,30.00,SSE,158,2.0,4.0,86,0.00,,,0.02,Wunderground v.1.15,2013-06-26 08:52:00,
2013-06-26 04:53:00,80.4,75.5,30.00,ESE,122,2.0,4.0,85,0.00,,,0.02,Wunderground v.1.15,2013-06-26 08:53:00,
2013-06-26 04:54:00,80.3,75.7,30.00,SE,124,2.0,4.0,86,0.00,,,0.02,Wunderground v.1.15,2013-06-26 08:54:00,
2013-06-26 04:55:00,80.3,75.7,30.00,SE,136,1.0,4.0,86,0.00,,,0.02,Wunderground v.1.15,2013-06-26 08:55:00,
2013-06-26 04:56:00,80.3,75.7,30.00,SE,146,1.0,4.0,86,0.00,,,0.02,Wunderground v.1.15,2013-06-26 08:56:00,
2013-06-26 04:59:00,80.3,75.7,30.00,East,87,1.0,4.0,86,0.00,,,0.02,Wunderground v.1.15,2013-06-26 08:59:00,
2013-06-26 05:01:00,80.3,75.7,30.00,SE,126,1.0,1.0,86,0.00,,,0.02,Wunderground v.1.15,2013-06-26 09:01:00,
2013-06-26 05:04:00,80.2,75.6,30.00,SE,124,1.0,1.0,86,0.00,,,0.02,Wunderground v.1.15,2013-06-26 09:04:00,
2013-06-26 05:06:00,80.2,75.6,30.00,SE,128,1.0,1.0,86,0.00,,,0.02,Wunderground v.1.15,2013-06-26 09:06:00,
2013-06-26 05:07:00,80.2,75.6,30.00,ESE,115,1.0,1.0,86,0.00,,,0.02,Wunderground v.1.15,2013-06-26 09:07:00,
2013-06-26 05:08:00,80.2,75.6,30.01,SE,134,1.0,2.0,86,0.00,,,0.02,Wunderground v.1.15,2013-06-26 09:08:00,
2013-06-26 05:09:00,80.2,75.6,30.01,ESE,117,1.0,2.0,86,0.00,,,0.02,Wunderground v.1.15,2013-06-26 09:09:00,
2013-06-26 05:13:00,80.1,75.5,30.01,ESE,112,1.0,2.0,86,0.00,,,0.02,Wunderground v.1.15,2013-06-26 09:13:00,
2013-06-26 05:14:00,80.1,75.5,30.01,SE,143,1.0,2.0,86,0.00,,,0.02,Wunderground v.1.15,2013-06-26 09:14:00,
2013-06-26 05:16:00,80.1,75.5,30.01,SE,143,1.0,3.0,86,0.00,,,0.02,Wunderground v.1.15,2013-06-26 09:16:00,
2013-06-26 05:17:00,80.1,75.5,30.01,SE,135,2.0,3.0,86,0.00,,,0.02,Wunderground v.1.15,2013-06-26 09:17:00,
2013-06-26 05:18:00,80.1,75.2,30.01,SSE,150,2.0,3.0,85,0.00,,,0.02,Wunderground v.1.15,2013-06-26 09:18:00,
2013-06-26 05:20:00,80.1,75.2,30.01,ESE,109,2.0,2.0,85,0.00,,,0.02,Wunderground v.1.15,2013-06-26 09:20:00,
2013-06-26 05:23:00,80.1,75.2,30.01,SE,138,2.0,3.0,85,0.00,,,0.02,Wunderground v.1.15,2013-06-26 09:23:00,
2013-06-26 05:26:00,80.1,75.5,30.01,SSE,156,2.0,3.0,86,0.00,,,0.02,Wunderground v.1.15,2013-06-26 09:26:00,
2013-06-26 05:27:00,80.1,75.5,30.01,SSE,158,1.0,6.0,86,0.00,,,0.02,Wunderground v.1.15,2013-06-26 09:27:00,
2013-06-26 05:29:00,80.0,74.4,30.01,South,179,2.0,6.0,83,0.00,,,0.02,Wunderground v.1.15,2013-06-26 09:29:00,
2013-06-26 05:31:00,79.9,73.9,30.01,South,191,2.0,6.0,82,0.00,,,0.02,Wunderground v.1.15,2013-06-26 09:31:00,
2013-06-26 05:34:00,79.7,73.7,30.01,SE,126,3.0,6.0,82,0.00,,,0.02,Wunderground v.1.15,2013-06-26 09:34:00,
2013-06-26 05:36:00,79.5,73.5,30.01,SSE,148,3.0,6.0,82,0.00,,,0.02,Wunderground v.1.15,2013-06-26 09:36:00,
2013-06-26 05:37:00,79.4,73.4,30.01,SSE,164,3.0,6.0,82,0.00,,,0.02,Wunderground v.1.15,2013-06-26 09:37:00,
2013-06-26 05:39:00,79.2,73.6,30.01,South,169,2.0,6.0,83,0.00,,,0.02,Wunderground v.1.15,2013-06-26 09:39:00,
2013-06-26 05:40:00,79.2,73.6,30.01,South,174,2.0,2.0,83,0.00,,,0.02,Wunderground v.1.15,2013-06-26 09:40:00,
2013-06-26 05:42:00,79.0,73.4,30.01,SE,124,2.0,6.0,83,0.00,,,0.02,Wunderground v.1.15,2013-06-26 09:42:00,
2013-06-26 05:43:00,79.0,73.4,30.01,SE,124,2.0,6.0,83,0.00,,,0.02,Wunderground v.1.15,2013-06-26 09:43:00,
2013-06-26 05:46:00,78.8,73.6,30.01,SE,145,1.0,6.0,84,0.00,,,0.02,Wunderground v.1.15,2013-06-26 09:46:00,
2013-06-26 05:47:00,78.7,73.5,30.01,ESE,122,1.0,6.0,84,0.00,,,0.02,Wunderground v.1.15,2013-06-26 09:47:00,
2013-06-26 05:48:00,78.7,73.5,30.01,SSE,155,1.0,6.0,84,0.00,,,0.02,Wunderground v.1.15,2013-06-26 09:48:00,
2013-06-26 05:49:00,78.6,73.4,30.01,SSE,155,0.0,6.0,84,0.00,,,0.02,Wunderground v.1.15,2013-06-26 09:49:00,
2013-06-26 05:51:00,78.5,73.6,30.01,SE,139,0.0,6.0,85,0.00,,,0.02,Wunderground v.1.15,2013-06-26 09:51:00,
2013-06-26 05:52:00,78.5,73.6,30.02,SE,127,0.0,6.0,85,0.00,,,0.02,Wunderground v.1.15,2013-06-26 09:52:00,
2013-06-26 05:54:00,78.4,73.5,30.02,SE,127,0.0,6.0,85,0.00,,,0.02,Wunderground v.1.15,2013-06-26 09:54:00,
2013-06-26 05:58:00,78.2,73.7,30.02,SE,127,0.0,6.0,86,0.00,,,0.02,Wunderground v.1.15,2013-06-26 09:58:00,
2013-06-26 05:59:00,78.1,73.6,30.02,SE,127,0.0,6.0,86,0.00,,,0.02,Wunderground v.1.15,2013-06-26 09:59:00,
2013-06-26 06:00:00,78.1,73.6,30.02,SE,127,0.0,0.0,86,0.00,,,0.02,Wunderground v.1.15,2013-06-26 10:00:00,
2013-06-26 06:01:00,78.0,73.5,30.02,SE,127,0.0,0.0,86,0.00,,,0.02,Wunderground v.1.15,2013-06-26 10:01:00,
2013-06-26 06:06:00,78.0,74.2,30.03,SE,141,0.0,2.0,88,0.00,,,0.02,Wunderground v.1.15,2013-06-26 10:06:00,
2013-06-26 06:07:00,78.0,74.2,30.02,SSE,160,0.0,4.0,88,0.00,,,0.02,Wunderground v.1.15,2013-06-26 10:07:00,
2013-06-26 06:08:00,78.1,74.6,30.02,SE,127,1.0,4.0,89,0.00,,,0.02,Wunderground v.1.15,2013-06-26 10:08:00,
2013-06-26 06:10:00,78.2,74.7,30.02,SSE,168,1.0,4.0,89,0.00,,,0.02,Wunderground v.1.15,2013-06-26 10:10:00,
2013-06-26 06:13:00,78.3,74.8,30.02,South,175,2.0,4.0,89,0.00,,,0.02,Wunderground v.1.15,2013-06-26 10:13:00,
2013-06-26 06:14:00,78.3,74.8,30.03,South,188,2.0,4.0,89,0.00,,,0.02,Wunderground v.1.15,2013-06-26 10:14:00,
2013-06-26 06:15:00,78.2,74.7,30.02,SE,139,2.0,4.0,89,0.00,,,0.02,Wunderground v.1.15,2013-06-26 10:15:00,
2013-06-26 06:16:00,78.2,74.7,30.02,ESE,120,2.0,4.0,89,0.00,,,0.02,Wunderground v.1.15,2013-06-26 10:16:00,
2013-06-26 06:20:00,77.9,74.4,30.02,South,174,2.0,3.0,89,0.00,,,0.02,Wunderground v.1.15,2013-06-26 10:20:00,
2013-06-26 06:21:00,77.8,74.0,30.02,SSW,194,2.0,3.0,88,0.00,,,0.02,Wunderground v.1.15,2013-06-26 10:21:00,
2013-06-26 06:22:00,77.8,74.0,30.02,SSW,194,1.0,3.0,88,0.00,,,0.02,Wunderground v.1.15,2013-06-26 10:22:00,
2013-06-26 06:23:00,77.7,73.9,30.02,East,97,1.0,3.0,88,0.00,,,0.02,Wunderground v.1.15,2013-06-26 10:23:00,
2013-06-26 06:27:00,77.5,73.7,30.03,SSE,157,1.0,3.0,88,0.00,,,0.02,Wunderground v.1.15,2013-06-26 10:27:00,
2013-06-26 06:28:00,77.5,74.0,30.03,SSW,193,1.0,3.0,89,0.00,,,0.02,Wunderground v.1.15,2013-06-26 10:28:00,
2013-06-26 06:30:00,77.4,73.6,30.03,SE,130,1.0,1.0,88,0.00,,,0.02,Wunderground v.1.15,2013-06-26 10:30:00,
2013-06-26 06:31:00,77.4,73.6,30.03,SE,130,1.0,8.0,88,0.00,,,0.02,Wunderground v.1.15,2013-06-26 10:31:00,
2013-06-26 06:35:00,77.3,73.5,30.03,ESE,123,0.0,8.0,88,0.00,,,0.02,Wunderground v.1.15,2013-06-26 10:35:00,
2013-06-26 06:36:00,77.2,73.4,30.03,SE,134,1.0,8.0,88,0.00,,,0.02,Wunderground v.1.15,2013-06-26 10:36:00,
2013-06-26 06:37:00,77.2,73.4,30.03,SE,139,1.0,8.0,88,0.00,,,0.02,Wunderground v.1.15,2013-06-26 10:37:00,
2013-06-26 06:42:00,77.2,73.7,30.04,SSE,147,1.0,8.0,89,0.00,,,0.02,Wunderground v.1.15,2013-06-26 10:42:00,
2013-06-26 06:43:00,77.2,73.7,30.04,SE,145,1.0,8.0,89,0.00,,,0.02,Wunderground v.1.15,2013-06-26 10:43:00,
2013-06-26 06:44:00,77.2,73.7,30.04,ESE,103,1.0,8.0,89,0.00,,,0.02,Wunderground v.1.15,2013-06-26 10:44:00,
2013-06-26 06:47:00,77.3,73.8,30.04,ENE,78,1.0,8.0,89,0.00,,,0.02,Wunderground v.1.15,2013-06-26 10:47:00,
2013-06-26 06:48:00,77.3,73.8,30.04,ESE,103,1.0,8.0,89,0.00,,,0.02,Wunderground v.1.15,2013-06-26 10:48:00,
2013-06-26 06:51:00,77.4,73.9,30.03,East,91,1.0,8.0,89,0.00,,,0.02,Wunderground v.1.15,2013-06-26 10:51:00,
2013-06-26 06:53:00,77.4,73.9,30.03,ENE,68,1.0,8.0,89,0.00,,,0.02,Wunderground v.1.15,2013-06-26 10:53:00,
2013-06-26 06:55:00,77.5,74.0,30.03,ESE,122,1.0,8.0,89,0.00,,,0.02,Wunderground v.1.15,2013-06-26 10:55:00,
2013-06-26 06:58:00,77.6,74.4,30.03,SE,131,1.0,8.0,90,0.00,,,0.02,Wunderground v.1.15,2013-06-26 10:58:00,
2013-06-26 06:59:00,77.7,74.5,30.03,East,86,1.0,8.0,90,0.00,,,0.02,Wunderground v.1.15,2013-06-26 10:59:00,
2013-06-26 07:01:00,77.7,74.5,30.03,East,89,1.0,1.0,90,0.00,,,0.02,Wunderground v.1.15,2013-06-26 11:01:00,
2013-06-26 07:05:00,77.8,74.6,30.03,ESE,108,2.0,3.0,90,0.00,,,0.02,Wunderground v.1.15,2013-06-26 11:05:00,
2013-06-26 07:06:00,77.8,74.6,30.03,ENE,62,2.0,4.0,90,0.00,,,0.02,Wunderground v.1.15,2013-06-26 11:06:00,
2013-06-26 07:08:00,77.8,74.6,30.03,SSE,158,2.0,4.0,90,0.00,,,0.02,Wunderground v.1.15,2013-06-26 11:08:00,
2013-06-26 07:11:00,77.8,74.6,30.03,SE,132,2.0,2.0,90,0.00,,,0.02,Wunderground v.1.15,2013-06-26 11:11:00,
2013-06-26 07:12:00,77.8,75.0,30.03,East,89,2.0,2.0,91,0.00,,,0.02,Wunderground v.1.15,2013-06-26 11:12:00,
2013-06-26 07:14:00,77.8,75.0,30.03,ENE,62,2.0,2.0,91,0.00,,,0.02,Wunderground v.1.15,2013-06-26 11:14:00,
2013-06-26 07:18:00,78.0,75.2,30.02,ENE,77,1.0,2.0,91,0.00,,,0.02,Wunderground v.1.15,2013-06-26 11:18:00,
2013-06-26 07:19:00,78.0,75.2,30.02,ENE,77,1.0,2.0,91,0.00,,,0.02,Wunderground v.1.15,2013-06-26 11:19:00,
2013-06-26 07:21:00,78.1,75.3,30.03,ENE,75,1.0,1.0,91,0.00,,,0.02,Wunderground v.1.15,2013-06-26 11:21:00,
2013-06-26 07:22:00,78.3,75.5,30.03,East,79,1.0,1.0,91,0.00,,,0.02,Wunderground v.1.15,2013-06-26 11:22:00,
2013-06-26 07:23:00,78.3,75.5,30.03,East,79,1.0,1.0,91,0.00,,,0.02,Wunderground v.1.15,2013-06-26 11:23:00,
2013-06-26 07:25:00,78.6,75.8,30.03,ENE,77,1.0,1.0,91,0.00,,,0.02,Wunderground v.1.15,2013-06-26 11:25:00,
2013-06-26 07:27:00,78.8,75.9,30.03,East,91,1.0,1.0,91,0.00,,,0.02,Wunderground v.1.15,2013-06-26 11:27:00,
2013-06-26 07:28:00,78.9,76.0,30.03,ENE,76,1.0,1.0,91,0.00,,,0.02,Wunderground v.1.15,2013-06-26 11:28:00,
2013-06-26 07:30:00,79.0,75.8,30.03,NE,49,1.0,3.0,90,0.00,,,0.02,Wunderground v.1.15,2013-06-26 11:30:00,
2013-06-26 07:33:00,79.2,76.0,30.03,SE,132,1.0,7.0,90,0.00,,,0.02,Wunderground v.1.15,2013-06-26 11:33:00,
2013-06-26 07:34:00,79.2,75.7,30.03,ESE,105,1.0,7.0,89,0.00,,,0.02,Wunderground v.1.15,2013-06-26 11:34:00,
2013-06-26 07:37:00,79.2,76.0,30.03,ENE,77,1.0,7.0,90,0.00,,,0.02,Wunderground v.1.15,2013-06-26 11:37:00,
2013-06-26 07:39:00,79.1,75.9,30.03,ENE,72,1.0,7.0,90,0.00,,,0.02,Wunderground v.1.15,2013-06-26 11:39:00,
2013-06-26 07:40:00,79.1,75.9,30.03,East,87,1.0,7.0,90,0.00,,,0.02,Wunderground v.1.15,2013-06-26 11:40:00,
2013-06-26 07:42:00,79.1,75.9,30.03,East,91,1.0,7.0,90,0.00,,,0.02,Wunderground v.1.15,2013-06-26 11:42:00,
2013-06-26 07:44:00,79.2,76.0,30.03,SE,130,1.0,7.0,90,0.00,,,0.02,Wunderground v.1.15,2013-06-26 11:44:00,
2013-06-26 07:47:00,79.2,76.0,30.02,SSE,148,0.0,7.0,90,0.00,,,0.02,Wunderground v.1.15,2013-06-26 11:47:00,
2013-06-26 07:48:00,79.2,76.0,30.02,SE,130,0.0,7.0,90,0.00,,,0.02,Wunderground v.1.15,2013-06-26 11:48:00,
2013-06-26 07:49:00,79.2,75.7,30.02,SE,132,1.0,7.0,89,0.00,,,0.02,Wunderground v.1.15,2013-06-26 11:49:00,
2013-06-26 07:50:00,79.2,75.7,30.02,ESE,117,1.0,7.0,89,0.00,,,0.02,Wunderground v.1.15,2013-06-26 11:50:00,
2013-06-26 07:54:00,79.3,75.8,30.02,East,80,1.0,7.0,89,0.00,,,0.02,Wunderground v.1.15,2013-06-26 11:54:00,
2013-06-26 07:55:00,79.4,76.2,30.02,ENE,70,1.0,7.0,90,0.00,,,0.03,Wunderground v.1.15,2013-06-26 11:55:00,
2013-06-26 07:56:00,79.4,76.2,30.03,East,98,1.0,7.0,90,0.00,,,0.03,Wunderground v.1.15,2013-06-26 11:56:00,
2013-06-26 07:59:00,79.4,76.2,30.03,East,96,1.0,7.0,90,0.00,,,0.03,Wunderground v.1.15,2013-06-26 11:59:00,
2013-06-26 08:00:00,79.4,76.2,30.02,ENE,68,0.0,0.0,90,0.00,,,0.03,Wunderground v.1.15,2013-06-26 12:00:00,
2013-06-26 08:04:00,79.4,76.2,30.03,ENE,68,0.0,0.0,90,0.00,,,0.03,Wunderground v.1.15,2013-06-26 12:04:00,
2013-06-26 08:06:00,79.5,76.3,30.03,ENE,68,0.0,1.0,90,0.00,,,0.03,Wunderground v.1.15,2013-06-26 12:06:00,
2013-06-26 08:11:00,79.5,76.3,30.03,ENE,73,0.0,0.0,90,0.00,,,0.03,Wunderground v.1.15,2013-06-26 12:11:00,
2013-06-26 08:12:00,79.6,76.4,30.03,ENE,73,0.0,0.0,90,0.00,,,0.03,Wunderground v.1.15,2013-06-26 12:12:00,
2013-06-26 08:13:00,79.6,76.7,30.03,ENE,76,0.0,0.0,91,0.00,,,0.03,Wunderground v.1.15,2013-06-26 12:13:00,
2013-06-26 08:14:00,79.7,76.5,30.03,ENE,76,0.0,0.0,90,0.00,,,0.03,Wunderground v.1.15,2013-06-26 12:14:00,
2013-06-26 08:15:00,79.7,76.8,30.03,ENE,76,0.0,0.0,91,0.00,,,0.03,Wunderground v.1.15,2013-06-26 12:15:00,
2013-06-26 08:17:00,79.7,76.5,30.03,East,94,0.0,2.0,90,0.00,,,0.03,Wunderground v.1.15,2013-06-26 12:17:00,
2013-06-26 08:20:00,79.9,76.4,30.03,East,79,1.0,1.0,89,0.00,,,0.03,Wunderground v.1.15,2013-06-26 12:20:00,
2013-06-26 08:21:00,79.9,76.4,30.03,ESE,117,1.0,1.0,89,0.00,,,0.03,Wunderground v.1.15,2013-06-26 12:21:00,
2013-06-26 08:24:00,80.1,76.6,30.03,SSE,168,1.0,1.0,89,0.00,,,0.03,Wunderground v.1.15,2013-06-26 12:24:00,
2013-06-26 08:26:00,80.2,76.7,30.03,SE,124,1.0,2.0,89,0.00,,,0.03,Wunderground v.1.15,2013-06-26 12:26:00,
2013-06-26 08:27:00,80.3,76.8,30.03,ESE,115,1.0,2.0,89,0.00,,,0.03,Wunderground v.1.15,2013-06-26 12:27:00,
2013-06-26 08:28:00,80.4,76.9,30.03,ESE,115,1.0,2.0,89,0.00,,,0.03,Wunderground v.1.15,2013-06-26 12:28:00,
2013-06-26 08:30:00,80.6,77.1,30.03,East,95,1.0,1.0,89,0.00,,,0.03,Wunderground v.1.15,2013-06-26 12:30:00,
2013-06-26 08:32:00,80.7,76.8,30.03,ENE,70,1.0,6.0,88,0.00,,,0.03,Wunderground v.1.15,2013-06-26 12:32:00,
2013-06-26 08:33:00,80.7,76.8,30.03,SE,131,1.0,6.0,88,0.00,,,0.03,Wunderground v.1.15,2013-06-26 12:33:00,
2013-06-26 08:35:00,80.9,77.0,30.03,ESE,105,1.0,6.0,88,0.00,,,0.03,Wunderground v.1.15,2013-06-26 12:35:00,
2013-06-26 08:36:00,81.0,77.1,30.03,ESE,104,1.0,6.0,88,0.00,,,0.03,Wunderground v.1.15,2013-06-26 12:36:00,
2013-06-26 08:39:00,81.3,77.1,30.04,ENE,64,1.0,6.0,87,0.00,,,0.03,Wunderground v.1.15,2013-06-26 12:39:00,
2013-06-26 08:40:00,81.4,77.5,30.04,ESE,107,1.0,6.0,88,0.00,,,0.03,Wunderground v.1.15,2013-06-26 12:40:00,
2013-06-26 08:41:00,81.6,77.4,30.04,SE,135,1.0,6.0,87,0.00,,,0.03,Wunderground v.1.15,2013-06-26 12:41:00,
2013-06-26 08:42:00,81.6,77.4,30.04,SSE,147,1.0,6.0,87,0.00,,,0.03,Wunderground v.1.15,2013-06-26 12:42:00,
2013-06-26 08:45:00,82.2,77.9,30.04,East,100,1.0,6.0,87,0.00,,,0.03,Wunderground v.1.15,2013-06-26 12:45:00,
2013-06-26 08:46:00,82.3,77.7,30.04,SSE,160,1.0,6.0,86,0.00,,,0.03,Wunderground v.1.15,2013-06-26 12:46:00,
2013-06-26 08:47:00,82.5,77.5,30.04,NE,50,1.0,6.0,85,0.00,,,0.03,Wunderground v.1.15,2013-06-26 12:47:00,
2013-06-26 08:49:00,82.6,77.3,30.04,ENE,72,2.0,6.0,84,0.00,,,0.03,Wunderground v.1.15,2013-06-26 12:49:00,
2013-06-26 08:52:00,82.7,77.0,30.04,SSE,160,3.0,6.0,83,0.00,,,0.03,Wunderground v.1.15,2013-06-26 12:52:00,
2013-06-26 08:53:00,82.7,77.0,30.04,SE,142,3.0,6.0,83,0.00,,,0.03,Wunderground v.1.15,2013-06-26 12:53:00,
2013-06-26 08:54:00,82.7,77.0,30.04,East,92,3.0,6.0,83,0.00,,,0.03,Wunderground v.1.15,2013-06-26 12:54:00,
2013-06-26 08:55:00,82.7,77.0,30.04,ESE,113,3.0,6.0,83,0.00,,,0.03,Wunderground v.1.15,2013-06-26 12:55:00,
2013-06-26 08:58:00,82.8,76.7,30.04,ESE,115,3.0,6.0,82,0.00,,,0.03,Wunderground v.1.15,2013-06-26 12:58:00,
2013-06-26 08:59:00,82.8,76.7,30.04,SSE,165,3.0,6.0,82,0.00,,,0.03,Wunderground v.1.15,2013-06-26 12:59:00,
2013-06-26 09:00:00,82.9,76.8,30.04,NE,48,3.0,3.0,82,0.00,,,0.03,Wunderground v.1.15,2013-06-26 13:00:00,
2013-06-26 09:04:00,83.4,77.0,30.04,ENE,58,3.0,6.0,81,0.00,,,0.03,Wunderground v.1.15,2013-06-26 13:04:00,
2013-06-26 09:05:00,83.6,77.5,30.04,NE,46,3.0,6.0,82,0.00,,,0.03,Wunderground v.1.15,2013-06-26 13:05:00,
2013-06-26 09:06:00,83.8,77.7,30.04,ENE,77,3.0,6.0,82,0.00,,,0.03,Wunderground v.1.15,2013-06-26 13:06:00,
2013-06-26 09:07:00,83.9,77.1,30.04,East,100,3.0,6.0,80,0.00,,,0.03,Wunderground v.1.15,2013-06-26 13:07:00,
2013-06-26 09:10:00,84.3,77.1,30.04,SE,143,2.0,4.0,79,0.00,,,0.03,Wunderground v.1.15,2013-06-26 13:10:00,
2013-06-26 09:12:00,84.4,76.8,30.04,ESE,115,2.0,4.0,78,0.00,,,0.03,Wunderground v.1.15,2013-06-26 13:12:00,
2013-06-26 09:13:00,84.5,76.9,30.04,East,99,2.0,4.0,78,0.00,,,0.03,Wunderground v.1.15,2013-06-26 13:13:00,
2013-06-26 09:14:00,84.5,76.9,30.04,ENE,70,2.0,4.0,78,0.00,,,0.03,Wunderground v.1.15,2013-06-26 13:14:00,
2013-06-26 09:17:00,84.8,76.8,30.05,ESE,113,3.0,4.0,77,0.00,,,0.03,Wunderground v.1.15,2013-06-26 13:17:00,
2013-06-26 09:19:00,85.0,77.0,30.04,East,95,3.0,4.0,77,0.00,,,0.03,Wunderground v.1.15,2013-06-26 13:19:00,
2013-06-26 09:23:00,85.1,76.7,30.04,SSE,148,3.0,6.0,76,0.00,,,0.03,Wunderground v.1.15,2013-06-26 13:23:00,
2013-06-26 09:24:00,85.1,76.7,30.05,SE,142,3.0,6.0,76,0.00,,,0.03,Wunderground v.1.15,2013-06-26 13:24:00,
2013-06-26 09:25:00,85.1,76.7,30.05,ESE,110,3.0,6.0,76,0.00,,,0.03,Wunderground v.1.15,2013-06-26 13:25:00,
2013-06-26 09:29:00,85.2,76.8,30.04,SSE,152,4.0,6.0,76,0.00,,,0.03,Wunderground v.1.15,2013-06-26 13:29:00,
2013-06-26 09:31:00,85.5,77.1,30.04,ESE,112,4.0,4.0,76,0.00,,,0.03,Wunderground v.1.15,2013-06-26 13:31:00,
2013-06-26 09:32:00,85.5,77.1,30.04,SSE,150,4.0,4.0,76,0.00,,,0.03,Wunderground v.1.15,2013-06-26 13:32:00,
2013-06-26 09:34:00,85.7,77.3,30.04,SE,124,4.0,7.0,76,0.00,,,0.03,Wunderground v.1.15,2013-06-26 13:34:00,
2013-06-26 09:35:00,85.7,76.9,30.04,SE,141,4.0,7.0,75,0.00,,,0.03,Wunderground v.1.15,2013-06-26 13:35:00,
2013-06-26 09:37:00,85.8,76.5,30.04,ESE,120,4.0,7.0,74,0.00,,,0.03,Wunderground v.1.15,2013-06-26 13:37:00,
2013-06-26 09:40:00,85.9,76.2,30.04,SE,128,4.0,4.0,73,0.00,,,0.03,Wunderground v.1.15,2013-06-26 13:40:00,
2013-06-26 09:42:00,86.0,76.7,30.04,ESE,119,4.0,5.0,74,0.00,,,0.03,Wunderground v.1.15,2013-06-26 13:42:00,
2013-06-26 09:44:00,86.1,76.4,30.04,SE,127,4.0,5.0,73,0.00,,,0.03,Wunderground v.1.15,2013-06-26 13:44:00,
2013-06-26 09:46:00,86.3,76.2,30.04,SSE,150,4.0,5.0,72,0.00,,,0.03,Wunderground v.1.15,2013-06-26 13:46:00,
2013-06-26 09:49:00,86.4,76.7,30.04,SE,131,4.0,5.0,73,0.00,,,0.03,Wunderground v.1.15,2013-06-26 13:49:00,
2013-06-26 09:50:00,86.5,76.4,30.04,SE,133,4.0,7.0,72,0.00,,,0.03,Wunderground v.1.15,2013-06-26 13:50:00,
2013-06-26 09:53:00,86.4,76.3,30.04,SE,124,4.0,8.0,72,0.00,,,0.03,Wunderground v.1.15,2013-06-26 13:53:00,
2013-06-26 09:54:00,86.4,75.9,30.04,East,86,5.0,8.0,71,0.00,,,0.03,Wunderground v.1.15,2013-06-26 13:54:00,
2013-06-26 09:55:00,86.5,76.0,30.04,South,169,5.0,8.0,71,0.00,,,0.03,Wunderground v.1.15,2013-06-26 13:55:00,
2013-06-26 09:56:00,86.7,76.2,30.04,East,92,5.0,8.0,71,0.00,,,0.03,Wunderground v.1.15,2013-06-26 13:56:00,
2013-06-26 10:00:00,87.0,75.6,30.04,ESE,110,5.0,5.0,69,0.00,,,0.03,Wunderground v.1.15,2013-06-26 14:00:00,
2013-06-26 10:01:00,87.1,75.3,30.04,East,82,5.0,7.0,68,0.00,,,0.03,Wunderground v.1.15,2013-06-26 14:01:00,
2013-06-26 10:03:00,87.1,75.3,30.04,ENE,70,5.0,7.0,68,0.00,,,0.03,Wunderground v.1.15,2013-06-26 14:03:00,
2013-06-26 10:06:00,87.5,76.1,30.04,NE,55,4.0,7.0,69,0.00,,,0.03,Wunderground v.1.15,2013-06-26 14:06:00,
2013-06-26 10:07:00,87.7,76.3,30.05,South,176,4.0,7.0,69,0.00,,,0.03,Wunderground v.1.15,2013-06-26 14:07:00,
2013-06-26 10:10:00,87.6,75.7,30.04,ENE,65,4.0,5.0,68,0.00,,,0.03,Wunderground v.1.15,2013-06-26 14:10:00,
2013-06-26 10:14:00,87.4,75.5,30.04,SE,124,4.0,5.0,68,0.00,,,0.03,Wunderground v.1.15,2013-06-26 14:14:00,
2013-06-26 10:15:00,87.4,75.5,30.04,ENE,75,5.0,7.0,68,0.00,,,0.03,Wunderground v.1.15,2013-06-26 14:15:00,
2013-06-26 10:16:00,87.3,75.4,30.04,ESE,120,5.0,8.0,68,0.00,,,0.03,Wunderground v.1.15,2013-06-26 14:16:00,
2013-06-26 10:19:00,86.8,75.4,30.04,SE,143,5.0,8.0,69,0.00,,,0.03,Wunderground v.1.15,2013-06-26 14:19:00,
2013-06-26 10:21:00,86.7,75.3,30.05,SE,135,5.0,6.0,69,0.00,,,0.03,Wunderground v.1.15,2013-06-26 14:21:00,
2013-06-26 10:22:00,86.6,75.2,30.05,East,82,5.0,6.0,69,0.00,,,0.03,Wunderground v.1.15,2013-06-26 14:22:00,
2013-06-26 10:24:00,86.6,75.6,30.05,SE,136,5.0,7.0,70,0.00,,,0.03,Wunderground v.1.15,2013-06-26 14:24:00,
2013-06-26 10:26:00,86.6,75.6,30.05,ENE,60,5.0,7.0,70,0.00,,,0.03,Wunderground v.1.15,2013-06-26 14:26:00,
2013-06-26 10:27:00,86.7,75.7,30.04,SE,135,4.0,7.0,70,0.00,,,0.03,Wunderground v.1.15,2013-06-26 14:27:00,
2013-06-26 10:30:00,87.0,75.6,30.05,ESE,108,4.0,4.0,69,0.00,,,0.03,Wunderground v.1.15,2013-06-26 14:30:00,
2013-06-26 10:32:00,87.3,75.9,30.05,SE,143,4.0,8.0,69,0.00,,,0.03,Wunderground v.1.15,2013-06-26 14:32:00,
2013-06-26 10:33:00,87.4,76.0,30.05,SE,139,4.0,8.0,69,0.00,,,0.03,Wunderground v.1.15,2013-06-26 14:33:00,
2013-06-26 10:34:00,87.4,75.5,30.05,East,94,4.0,8.0,68,0.00,,,0.03,Wunderground v.1.15,2013-06-26 14:34:00,
2013-06-26 10:36:00,87.4,75.5,30.05,SSE,163,4.0,8.0,68,0.00,,,0.03,Wunderground v.1.15,2013-06-26 14:36:00,
2013-06-26 10:38:00,87.4,75.5,30.05,ESE,121,4.0,8.0,68,0.00,,,0.03,Wunderground v.1.15,2013-06-26 14:38:00,
2013-06-26 10:40:00,87.6,75.3,30.05,South,173,4.0,8.0,67,0.00,,,0.03,Wunderground v.1.15,2013-06-26 14:40:00,
2013-06-26 10:42:00,87.6,74.8,30.05,SSE,156,4.0,8.0,66,0.00,,,0.03,Wunderground v.1.15,2013-06-26 14:42:00,
2013-06-26 10:44:00,87.4,74.6,30.05,South,169,4.0,8.0,66,0.00,,,0.03,Wunderground v.1.15,2013-06-26 14:44:00,
2013-06-26 10:46:00,87.2,74.9,30.04,SSE,160,4.0,8.0,67,0.00,,,0.03,Wunderground v.1.15,2013-06-26 14:46:00,
2013-06-26 10:48:00,87.1,75.3,30.05,ENE,72,4.0,8.0,68,0.00,,,0.03,Wunderground v.1.15,2013-06-26 14:48:00,
2013-06-26 10:49:00,87.2,75.8,30.05,ESE,122,4.0,8.0,69,0.00,,,0.03,Wunderground v.1.15,2013-06-26 14:49:00,
2013-06-26 10:52:00,87.6,75.7,30.05,SE,136,4.0,8.0,68,0.00,,,0.03,Wunderground v.1.15,2013-06-26 14:52:00,
2013-06-26 10:53:00,87.7,75.8,30.04,SE,134,4.0,8.0,68,0.00,,,0.03,Wunderground v.1.15,2013-06-26 14:53:00,
2013-06-26 10:55:00,87.6,75.7,30.04,SE,144,4.0,8.0,68,0.00,,,0.03,Wunderground v.1.15,2013-06-26 14:55:00,
2013-06-26 10:56:00,87.6,75.3,30.04,SE,143,4.0,8.0,67,0.00,,,0.03,Wunderground v.1.15,2013-06-26 14:56:00,
2013-06-26 10:59:00,87.8,75.5,30.05,SE,134,4.0,8.0,67,0.00,,,0.03,Wunderground v.1.15,2013-06-26 14:59:00,
2013-06-26 11:02:00,88.2,74.5,30.05,SSE,168,4.0,6.0,64,0.00,,,0.03,Wunderground v.1.15,2013-06-26 15:02:00,
2013-06-26 11:03:00,88.2,74.5,30.05,SSE,165,4.0,6.0,64,0.00,,,0.03,Wunderground v.1.15,2013-06-26 15:03:00,
2013-06-26 11:04:00,88.3,74.6,30.04,SSE,150,4.0,6.0,64,0.00,,,0.03,Wunderground v.1.15,2013-06-26 15:04:00,
2013-06-26 11:05:00,88.3,75.0,30.04,SE,131,4.0,7.0,65,0.00,,,0.03,Wunderground v.1.15,2013-06-26 15:05:00,
2013-06-26 11:08:00,88.4,75.1,30.05,SE,144,4.0,7.0,65,0.00,,,0.03,Wunderground v.1.15,2013-06-26 15:08:00,
2013-06-26 11:09:00,88.5,74.8,30.04,South,186,4.0,7.0,64,0.00,,,0.03,Wunderground v.1.15,2013-06-26 15:09:00,
2013-06-26 11:12:00,88.7,75.4,30.05,South,184,4.0,6.0,65,0.00,,,0.03,Wunderground v.1.15,2013-06-26 15:12:00,
2013-06-26 11:13:00,88.8,75.5,30.05,SE,134,4.0,6.0,65,0.00,,,0.03,Wunderground v.1.15,2013-06-26 15:13:00,
2013-06-26 11:15:00,89.0,75.2,30.05,ENE,63,4.0,7.0,64,0.00,,,0.03,Wunderground v.1.15,2013-06-26 15:15:00,
2013-06-26 11:17:00,89.2,75.0,30.05,ESE,113,4.0,7.0,63,0.00,,,0.03,Wunderground v.1.15,2013-06-26 15:17:00,
2013-06-26 11:19:00,89.2,75.0,30.04,East,83,4.0,7.0,63,0.00,,,0.03,Wunderground v.1.15,2013-06-26 15:19:00,
2013-06-26 11:20:00,89.1,74.9,30.04,ESE,119,4.0,6.0,63,0.00,,,0.03,Wunderground v.1.15,2013-06-26 15:20:00,
2013-06-26 11:22:00,89.1,74.4,30.04,SSE,161,5.0,6.0,62,0.00,,,0.03,Wunderground v.1.15,2013-06-26 15:22:00,
2013-06-26 11:25:00,89.3,74.6,30.04,SE,137,5.0,7.0,62,0.00,,,0.03,Wunderground v.1.15,2013-06-26 15:25:00,
2013-06-26 11:26:00,89.3,74.1,30.04,ENE,70,5.0,7.0,61,0.00,,,0.03,Wunderground v.1.15,2013-06-26 15:26:00,
2013-06-26 11:28:00,89.2,75.0,30.04,East,91,5.0,7.0,63,0.00,,,0.03,Wunderground v.1.15,2013-06-26 15:28:00,
2013-06-26 11:29:00,89.2,74.5,30.04,SE,124,5.0,7.0,62,0.00,,,0.03,Wunderground v.1.15,2013-06-26 15:29:00,
2013-06-26 11:31:00,89.3,75.5,30.04,ESE,113,5.0,10.0,64,0.00,,,0.03,Wunderground v.1.15,2013-06-26 15:31:00,
2013-06-26 11:33:00,89.3,75.0,30.04,SE,133,5.0,10.0,63,0.00,,,0.03,Wunderground v.1.15,2013-06-26 15:33:00,
2013-06-26 11:35:00,89.4,75.1,30.04,SE,134,5.0,10.0,63,0.00,,,0.03,Wunderground v.1.15,2013-06-26 15:35:00,
2013-06-26 11:37:00,89.5,75.2,30.04,ENE,70,5.0,10.0,63,0.00,,,0.03,Wunderground v.1.15,2013-06-26 15:37:00,
2013-06-26 11:38:00,89.6,74.9,30.04,ENE,62,4.0,10.0,62,0.00,,,0.03,Wunderground v.1.15,2013-06-26 15:38:00,
2013-06-26 11:41:00,89.7,74.9,30.04,SSE,148,5.0,10.0,62,0.00,,,0.03,Wunderground v.1.15,2013-06-26 15:41:00,
2013-06-26 11:45:00,89.6,74.9,30.05,SE,126,5.0,10.0,62,0.00,,,0.03,Wunderground v.1.15,2013-06-26 15:45:00,
2013-06-26 11:46:00,89.7,74.9,30.04,ENE,66,5.0,10.0,62,0.00,,,0.03,Wunderground v.1.15,2013-06-26 15:46:00,
2013-06-26 11:47:00,89.7,74.5,30.04,SSE,160,5.0,10.0,61,0.00,,,0.03,Wunderground v.1.15,2013-06-26 15:47:00,
2013-06-26 11:50:00,89.4,74.7,30.05,SE,136,6.0,10.0,62,0.00,,,0.03,Wunderground v.1.15,2013-06-26 15:50:00,
2013-06-26 11:51:00,89.4,74.7,30.05,East,94,6.0,10.0,62,0.00,,,0.03,Wunderground v.1.15,2013-06-26 15:51:00,
2013-06-26 11:52:00,89.3,74.1,30.05,ENE,78,6.0,10.0,61,0.00,,,0.03,Wunderground v.1.15,2013-06-26 15:52:00,
2013-06-26 11:53:00,89.3,74.6,30.05,SE,125,5.0,10.0,62,0.00,,,0.03,Wunderground v.1.15,2013-06-26 15:53:00,
2013-06-26 11:57:00,89.4,74.2,30.05,East,96,5.0,10.0,61,0.00,,,0.03,Wunderground v.1.15,2013-06-26 15:57:00,
2013-06-26 11:58:00,89.5,74.3,30.05,ESE,118,5.0,10.0,61,0.00,,,0.03,Wunderground v.1.15,2013-06-26 15:58:00,
2013-06-26 12:01:00,89.6,74.9,30.05,ESE,122,5.0,10.0,62,0.00,,,0.03,Wunderground v.1.15,2013-06-26 16:01:00,
2013-06-26 12:03:00,89.7,74.9,30.05,SE,128,5.0,10.0,62,0.00,,,0.03,Wunderground v.1.15,2013-06-26 16:03:00,
2013-06-26 12:05:00,89.9,74.6,30.05,SSE,167,5.0,10.0,61,0.00,,,0.03,Wunderground v.1.15,2013-06-26 16:05:00,
2013-06-26 12:07:00,90.0,75.2,30.05,SE,128,5.0,10.0,62,0.00,,,0.03,Wunderground v.1.15,2013-06-26 16:07:00,
2013-06-26 12:08:00,90.0,74.7,30.05,SSE,165,5.0,10.0,61,0.00,,,0.03,Wunderground v.1.15,2013-06-26 16:08:00,
2013-06-26 12:09:00,90.1,74.8,30.05,East,89,5.0,10.0,61,0.00,,,0.03,Wunderground v.1.15,2013-06-26 16:09:00,
2013-06-26 12:13:00,90.4,75.1,30.05,ESE,122,4.0,6.0,61,0.00,,,0.03,Wunderground v.1.15,2013-06-26 16:13:00,
2013-06-26 12:15:00,90.3,75.0,30.05,ESE,103,4.0,6.0,61,0.00,,,0.03,Wunderground v.1.15,2013-06-26 16:15:00,
2013-06-26 12:18:00,89.7,74.9,30.05,ENE,77,4.0,6.0,62,0.00,,,0.03,Wunderground v.1.15,2013-06-26 16:18:00,
2013-06-26 12:19:00,89.8,75.0,30.05,SE,143,4.0,6.0,62,0.00,,,0.03,Wunderground v.1.15,2013-06-26 16:19:00,
2013-06-26 12:20:00,89.8,74.6,30.05,SE,139,4.0,4.0,61,0.00,,,0.03,Wunderground v.1.15,2013-06-26 16:20:00,
2013-06-26 12:21:00,89.7,74.9,30.05,SE,136,4.0,5.0,62,0.00,,,0.03,Wunderground v.1.15,2013-06-26 16:21:00,
2013-06-26 12:23:00,89.4,74.7,30.05,East,92,4.0,6.0,62,0.00,,,0.03,Wunderground v.1.15,2013-06-26 16:23:00,
2013-06-26 12:26:00,89.2,75.4,30.05,SE,133,4.0,6.0,64,0.00,,,0.03,Wunderground v.1.15,2013-06-26 16:26:00,
2013-06-26 12:27:00,89.0,75.2,30.06,SE,136,4.0,6.0,64,0.00,,,0.03,Wunderground v.1.15,2013-06-26 16:27:00,
2013-06-26 12:28:00,88.9,75.1,30.06,ESE,115,5.0,6.0,64,0.00,,,0.03,Wunderground v.1.15,2013-06-26 16:28:00,
2013-06-26 12:31:00,89.0,75.2,30.06,SSE,150,5.0,11.0,64,0.00,,,0.03,Wunderground v.1.15,2013-06-26 16:31:00,
2013-06-26 12:34:00,89.0,74.8,30.06,ESE,103,5.0,11.0,63,0.00,,,0.03,Wunderground v.1.15,2013-06-26 16:34:00,
2013-06-26 12:36:00,89.3,75.5,30.06,ESE,119,5.0,11.0,64,0.00,,,0.03,Wunderground v.1.15,2013-06-26 16:36:00,
2013-06-26 12:37:00,89.5,75.2,30.06,East,98,5.0,11.0,63,0.00,,,0.03,Wunderground v.1.15,2013-06-26 16:37:00,
2013-06-26 12:38:00,89.7,75.4,30.06,SE,137,4.0,11.0,63,0.00,,,0.03,Wunderground v.1.15,2013-06-26 16:38:00,
2013-06-26 12:40:00,90.0,75.2,30.06,SE,128,4.0,11.0,62,0.00,,,0.03,Wunderground v.1.15,2013-06-26 16:40:00,
2013-06-26 12:41:00,90.0,74.7,30.06,ESE,115,4.0,11.0,61,0.00,,,0.03,Wunderground v.1.15,2013-06-26 16:41:00,
2013-06-26 12:42:00,90.0,74.2,30.06,NE,53,4.0,11.0,60,0.00,,,0.03,Wunderground v.1.15,2013-06-26 16:42:00,
2013-06-26 12:46:00,90.0,74.7,30.06,NE,56,5.0,11.0,61,0.00,,,0.03,Wunderground v.1.15,2013-06-26 16:46:00,
2013-06-26 12:47:00,90.0,74.7,30.06,East,90,5.0,11.0,61,0.00,,,0.03,Wunderground v.1.15,2013-06-26 16:47:00,
2013-06-26 12:48:00,90.0,74.2,30.06,East,98,5.0,11.0,60,0.00,,,0.03,Wunderground v.1.15,2013-06-26 16:48:00,
2013-06-26 12:49:00,90.1,74.3,30.06,SE,132,5.0,11.0,60,0.00,,,0.03,Wunderground v.1.15,2013-06-26 16:49:00,
2013-06-26 12:50:00,90.1,74.3,30.06,ENE,72,5.0,5.0,60,0.00,,,0.03,Wunderground v.1.15,2013-06-26 16:50:00,
2013-06-26 12:53:00,90.2,74.9,30.06,ENE,72,5.0,11.0,61,0.00,,,0.03,Wunderground v.1.15,2013-06-26 16:53:00,
2013-06-26 12:54:00,90.3,74.5,30.06,ENE,77,5.0,11.0,60,0.00,,,0.03,Wunderground v.1.15,2013-06-26 16:54:00,
2013-06-26 12:59:00,90.4,75.1,30.06,South,174,4.0,11.0,61,0.00,,,0.03,Wunderground v.1.15,2013-06-26 16:59:00,
2013-06-26 13:00:00,90.5,74.7,30.06,SE,127,4.0,9.0,60,0.00,,,0.03,Wunderground v.1.15,2013-06-26 17:00:00,
2013-06-26 13:01:00,90.5,74.7,30.06,SE,124,5.0,9.0,60,0.00,,,0.03,Wunderground v.1.15,2013-06-26 17:01:00,
2013-06-26 13:02:00,90.4,75.6,30.06,East,98,5.0,9.0,62,0.00,,,0.03,Wunderground v.1.15,2013-06-26 17:02:00,
2013-06-26 13:05:00,90.1,74.8,30.06,ESE,114,5.0,9.0,61,0.00,,,0.03,Wunderground v.1.15,2013-06-26 17:05:00,
2013-06-26 13:07:00,90.2,74.9,30.06,ENE,62,5.0,9.0,61,0.00,,,0.03,Wunderground v.1.15,2013-06-26 17:07:00,
2013-06-26 13:08:00,90.2,75.4,30.06,ESE,102,5.0,9.0,62,0.00,,,0.03,Wunderground v.1.15,2013-06-26 17:08:00,
2013-06-26 13:13:00,90.0,74.2,30.06,SE,129,4.0,5.0,60,0.00,,,0.03,Wunderground v.1.15,2013-06-26 17:13:00,
2013-06-26 13:14:00,90.0,74.2,30.06,ESE,120,4.0,5.0,60,0.00,,,0.03,Wunderground v.1.15,2013-06-26 17:14:00,
2013-06-26 13:15:00,90.0,74.2,30.06,South,181,4.0,5.0,60,0.00,,,0.03,Wunderground v.1.15,2013-06-26 17:15:00,
2013-06-26 13:16:00,90.2,74.4,30.06,SE,127,4.0,5.0,60,0.00,,,0.03,Wunderground v.1.15,2013-06-26 17:16:00,
2013-06-26 13:19:00,90.8,75.0,30.06,South,180,3.0,5.0,60,0.00,,,0.03,Wunderground v.1.15,2013-06-26 17:19:00,
2013-06-26 13:20:00,91.0,74.2,30.06,East,96,3.0,9.0,58,0.00,,,0.03,Wunderground v.1.15,2013-06-26 17:20:00,
2013-06-26 13:22:00,91.0,74.7,30.06,NE,49,3.0,9.0,59,0.00,,,0.03,Wunderground v.1.15,2013-06-26 17:22:00,
2013-06-26 13:25:00,90.6,74.3,30.06,SE,143,4.0,9.0,59,0.00,,,0.03,Wunderground v.1.15,2013-06-26 17:25:00,
2013-06-26 13:26:00,90.6,73.8,30.06,ESE,113,4.0,9.0,58,0.00,,,0.03,Wunderground v.1.15,2013-06-26 17:26:00,
2013-06-26 13:27:00,90.6,74.3,30.06,SE,129,5.0,9.0,59,0.00,,,0.03,Wunderground v.1.15,2013-06-26 17:27:00,
2013-06-26 13:28:00,90.6,74.3,30.06,SE,143,5.0,9.0,59,0.00,,,0.03,Wunderground v.1.15,2013-06-26 17:28:00,
2013-06-26 13:31:00,90.6,74.3,30.06,East,98,5.0,12.0,59,0.00,,,0.03,Wunderground v.1.15,2013-06-26 17:31:00,
2013-06-26 13:33:00,90.6,74.8,30.06,ENE,60,5.0,12.0,60,0.00,,,0.03,Wunderground v.1.15,2013-06-26 17:33:00,
2013-06-26 13:34:00,90.7,74.9,30.06,SE,131,5.0,12.0,60,0.00,,,0.03,Wunderground v.1.15,2013-06-26 17:34:00,
2013-06-26 13:38:00,90.5,73.7,30.05,SE,128,6.0,12.0,58,0.00,,,0.03,Wunderground v.1.15,2013-06-26 17:38:00,
2013-06-26 13:39:00,90.4,74.1,30.06,SSE,153,6.0,12.0,59,0.00,,,0.03,Wunderground v.1.15,2013-06-26 17:39:00,
2013-06-26 13:44:00,90.4,74.1,30.05,SSE,147,6.0,12.0,59,0.00,,,0.03,Wunderground v.1.15,2013-06-26 17:44:00,
2013-06-26 13:45:00,90.4,74.1,30.05,ESE,108,6.0,12.0,59,0.00,,,0.03,Wunderground v.1.15,2013-06-26 17:45:00,
2013-06-26 13:47:00,90.4,73.1,30.05,SE,131,6.0,12.0,57,0.00,,,0.03,Wunderground v.1.15,2013-06-26 17:47:00,
2013-06-26 13:49:00,90.3,73.0,30.05,SSE,151,5.0,12.0,57,0.00,,,0.03,Wunderground v.1.15,2013-06-26 17:49:00,
2013-06-26 13:51:00,90.4,74.1,30.05,ESE,108,6.0,12.0,59,0.00,,,0.03,Wunderground v.1.15,2013-06-26 17:51:00,
2013-06-26 13:52:00,90.6,74.3,30.05,ESE,117,6.0,12.0,59,0.00,,,0.03,Wunderground v.1.15,2013-06-26 17:52:00,
2013-06-26 13:53:00,90.8,74.0,30.05,ENE,69,6.0,12.0,58,0.00,,,0.03,Wunderground v.1.15,2013-06-26 17:53:00,
2013-06-26 13:54:00,90.8,74.5,30.05,ENE,64,6.0,12.0,59,0.00,,,0.03,Wunderground v.1.15,2013-06-26 17:54:00,
2013-06-26 13:58:00,91.0,73.1,30.05,East,87,5.0,12.0,56,0.00,,,0.03,Wunderground v.1.15,2013-06-26 17:58:00,
2013-06-26 14:00:00,91.1,73.7,30.05,SE,128,5.0,5.0,57,0.00,,,0.03,Wunderground v.1.15,2013-06-26 18:00:00,
2013-06-26 14:01:00,91.3,74.4,30.05,South,181,5.0,5.0,58,0.00,,,0.03,Wunderground v.1.15,2013-06-26 18:01:00,
2013-06-26 14:02:00,91.4,74.5,30.05,SE,146,5.0,5.0,58,0.00,,,0.03,Wunderground v.1.15,2013-06-26 18:02:00,
2013-06-26 14:04:00,91.7,73.8,30.05,NNE,32,4.0,5.0,56,0.00,,,0.03,Wunderground v.1.15,2013-06-26 18:04:00,
2013-06-26 14:06:00,92.0,75.1,30.05,SE,141,4.0,6.0,58,0.00,,,0.03,Wunderground v.1.15,2013-06-26 18:06:00,
2013-06-26 14:07:00,92.0,74.1,30.05,East,101,4.0,7.0,56,0.00,,,0.03,Wunderground v.1.15,2013-06-26 18:07:00,
2013-06-26 14:08:00,91.9,72.3,30.05,SSE,156,4.0,7.0,53,0.00,,,0.03,Wunderground v.1.15,2013-06-26 18:08:00,
2013-06-26 14:12:00,91.5,73.6,30.04,SE,130,5.0,7.0,56,0.00,,,0.03,Wunderground v.1.15,2013-06-26 18:12:00,
2013-06-26 14:14:00,91.3,73.9,30.03,SSE,164,5.0,7.0,57,0.00,,,0.03,Wunderground v.1.15,2013-06-26 18:14:00,
2013-06-26 14:17:00,91.6,73.7,30.03,ENE,58,5.0,9.0,56,0.00,,,0.03,Wunderground v.1.15,2013-06-26 18:17:00,
2013-06-26 14:20:00,91.5,72.0,30.03,SE,143,6.0,6.0,53,0.00,,,0.03,Wunderground v.1.15,2013-06-26 18:20:00,
2013-06-26 14:22:00,91.3,71.8,30.03,SE,142,5.0,6.0,53,0.00,,,0.03,Wunderground v.1.15,2013-06-26 18:22:00,
2013-06-26 14:23:00,91.3,71.8,30.03,SE,127,6.0,7.0,53,0.00,,,0.03,Wunderground v.1.15,2013-06-26 18:23:00,
2013-06-26 14:25:00,91.2,72.2,30.03,SE,141,6.0,7.0,54,0.00,,,0.03,Wunderground v.1.15,2013-06-26 18:25:00,
2013-06-26 14:28:00,91.1,72.1,30.03,East,79,6.0,8.0,54,0.00,,,0.03,Wunderground v.1.15,2013-06-26 18:28:00,
2013-06-26 14:29:00,91.1,72.1,30.03,East,83,6.0,8.0,54,0.00,,,0.03,Wunderground v.1.15,2013-06-26 18:29:00,
2013-06-26 14:31:00,91.5,72.5,30.03,SE,134,5.0,15.0,54,0.00,,,0.03,Wunderground v.1.15,2013-06-26 18:31:00,
2013-06-26 14:32:00,91.7,72.7,30.03,SSE,160,5.0,15.0,54,0.00,,,0.03,Wunderground v.1.15,2013-06-26 18:32:00,
2013-06-26 14:34:00,91.6,72.0,30.03,SE,126,5.0,15.0,53,0.00,,,0.03,Wunderground v.1.15,2013-06-26 18:34:00,
2013-06-26 14:35:00,91.5,72.5,30.03,SE,136,5.0,15.0,54,0.00,,,0.03,Wunderground v.1.15,2013-06-26 18:35:00,
2013-06-26 14:37:00,91.3,72.9,30.03,ESE,109,5.0,15.0,55,0.00,,,0.03,Wunderground v.1.15,2013-06-26 18:37:00,
2013-06-26 14:38:00,91.4,72.4,30.03,South,175,5.0,15.0,54,0.00,,,0.03,Wunderground v.1.15,2013-06-26 18:38:00,
2013-06-26 14:40:00,91.4,72.4,30.03,ESE,107,5.0,15.0,54,0.00,,,0.03,Wunderground v.1.15,2013-06-26 18:40:00,
2013-06-26 14:44:00,91.4,73.0,30.03,SE,142,5.0,15.0,55,0.00,,,0.03,Wunderground v.1.15,2013-06-26 18:44:00,
2013-06-26 14:45:00,91.4,72.4,30.03,SE,143,5.0,15.0,54,0.00,,,0.03,Wunderground v.1.15,2013-06-26 18:45:00,
2013-06-26 14:46:00,91.4,72.4,30.03,East,89,5.0,15.0,54,0.00,,,0.03,Wunderground v.1.15,2013-06-26 18:46:00,
2013-06-26 14:48:00,91.5,73.1,30.03,SE,141,5.0,15.0,55,0.00,,,0.03,Wunderground v.1.15,2013-06-26 18:48:00,
2013-06-26 14:50:00,91.4,73.0,30.03,SE,125,5.0,5.0,55,0.00,,,0.03,Wunderground v.1.15,2013-06-26 18:50:00,
2013-06-26 14:51:00,91.4,73.5,30.03,SE,126,5.0,15.0,56,0.00,,,0.03,Wunderground v.1.15,2013-06-26 18:51:00,
2013-06-26 14:52:00,91.6,73.7,30.03,SE,139,5.0,15.0,56,0.00,,,0.03,Wunderground v.1.15,2013-06-26 18:52:00,
2013-06-26 14:53:00,91.8,73.9,30.03,ESE,103,5.0,15.0,56,0.00,,,0.03,Wunderground v.1.15,2013-06-26 18:53:00,
2013-06-26 14:56:00,92.1,72.5,30.03,ENE,59,4.0,15.0,53,0.00,,,0.03,Wunderground v.1.15,2013-06-26 18:56:00,
2013-06-26 14:58:00,91.9,72.3,30.03,ESE,117,5.0,15.0,53,0.00,,,0.03,Wunderground v.1.15,2013-06-26 18:58:00,
2013-06-26 14:59:00,91.7,72.7,30.04,ENE,74,4.0,15.0,54,0.00,,,0.03,Wunderground v.1.15,2013-06-26 18:59:00,
2013-06-26 15:01:00,91.6,72.6,30.04,East,94,4.0,4.0,54,0.00,,,0.03,Wunderground v.1.15,2013-06-26 19:01:00,
2013-06-26 15:03:00,91.4,72.4,30.04,ENE,57,4.0,6.0,54,0.00,,,0.03,Wunderground v.1.15,2013-06-26 19:03:00,
2013-06-26 15:05:00,91.2,71.7,30.04,SSE,148,4.0,6.0,53,0.00,,,0.03,Wunderground v.1.15,2013-06-26 19:05:00,
2013-06-26 15:06:00,91.0,71.5,30.04,East,97,5.0,6.0,53,0.00,,,0.03,Wunderground v.1.15,2013-06-26 19:06:00,
2013-06-26 15:08:00,91.1,72.7,30.04,SE,125,4.0,9.0,55,0.00,,,0.03,Wunderground v.1.15,2013-06-26 19:08:00,
2013-06-26 15:09:00,91.1,72.1,30.04,SSE,163,5.0,9.0,54,0.00,,,0.03,Wunderground v.1.15,2013-06-26 19:09:00,
2013-06-26 15:12:00,91.1,71.6,30.04,ESE,103,5.0,6.0,53,0.00,,,0.03,Wunderground v.1.15,2013-06-26 19:12:00,
2013-06-26 15:14:00,91.0,71.5,30.04,East,89,5.0,6.0,53,0.00,,,0.03,Wunderground v.1.15,2013-06-26 19:14:00,
2013-06-26 15:16:00,91.0,71.5,30.04,SSE,150,5.0,6.0,53,0.00,,,0.03,Wunderground v.1.15,2013-06-26 19:16:00,
2013-06-26 15:18:00,90.9,72.5,30.04,East,101,5.0,7.0,55,0.00,,,0.03,Wunderground v.1.15,2013-06-26 19:18:00,
2013-06-26 15:21:00,91.1,72.7,30.03,ESE,115,5.0,5.0,55,0.00,,,0.03,Wunderground v.1.15,2013-06-26 19:21:00,
2013-06-26 15:22:00,91.3,72.9,30.03,SE,145,5.0,5.0,55,0.00,,,0.03,Wunderground v.1.15,2013-06-26 19:22:00,
2013-06-26 15:23:00,91.3,72.9,30.03,ESE,115,4.0,5.0,55,0.00,,,0.03,Wunderground v.1.15,2013-06-26 19:23:00,
2013-06-26 15:25:00,91.3,72.9,30.03,SSE,154,4.0,5.0,55,0.00,,,0.03,Wunderground v.1.15,2013-06-26 19:25:00,
2013-06-26 15:27:00,91.3,72.3,30.03,SE,136,4.0,5.0,54,0.00,,,0.03,Wunderground v.1.15,2013-06-26 19:27:00,
2013-06-26 15:28:00,91.3,72.3,30.03,SE,135,4.0,7.0,54,0.00,,,0.03,Wunderground v.1.15,2013-06-26 19:28:00,
2013-06-26 15:30:00,91.2,72.8,30.03,ESE,106,4.0,6.0,55,0.00,,,0.03,Wunderground v.1.15,2013-06-26 19:30:00,
2013-06-26 15:31:00,91.1,72.7,30.03,ENE,60,4.0,14.0,55,0.00,,,0.03,Wunderground v.1.15,2013-06-26 19:31:00,
2013-06-26 15:33:00,90.7,71.8,30.03,ESE,115,4.0,14.0,54,0.00,,,0.03,Wunderground v.1.15,2013-06-26 19:33:00,
2013-06-26 15:34:00,90.6,72.2,30.03,SE,136,4.0,14.0,55,0.00,,,0.03,Wunderground v.1.15,2013-06-26 19:34:00,
2013-06-26 15:36:00,90.5,72.7,30.03,ENE,74,5.0,14.0,56,0.00,,,0.03,Wunderground v.1.15,2013-06-26 19:36:00,
2013-06-26 15:37:00,90.5,72.1,30.03,ESE,120,5.0,14.0,55,0.00,,,0.03,Wunderground v.1.15,2013-06-26 19:37:00,
2013-06-26 15:39:00,90.5,72.1,30.02,SE,136,5.0,14.0,55,0.00,,,0.03,Wunderground v.1.15,2013-06-26 19:39:00,
2013-06-26 15:41:00,90.5,72.1,30.03,SE,136,6.0,14.0,55,0.00,,,0.03,Wunderground v.1.15,2013-06-26 19:41:00,
2013-06-26 15:42:00,90.6,71.7,30.03,SSE,147,6.0,14.0,54,0.00,,,0.03,Wunderground v.1.15,2013-06-26 19:42:00,
2013-06-26 15:44:00,90.5,71.0,30.03,SE,134,6.0,14.0,53,0.00,,,0.03,Wunderground v.1.15,2013-06-26 19:44:00,
2013-06-26 15:48:00,90.5,72.1,30.02,SSE,163,5.0,14.0,55,0.00,,,0.03,Wunderground v.1.15,2013-06-26 19:48:00,
2013-06-26 15:49:00,90.4,72.0,30.02,SSE,159,5.0,14.0,55,0.00,,,0.03,Wunderground v.1.15,2013-06-26 19:49:00,
2013-06-26 15:51:00,90.2,71.8,30.02,SE,132,5.0,14.0,55,0.00,,,0.03,Wunderground v.1.15,2013-06-26 19:51:00,
2013-06-26 15:53:00,90.4,72.6,30.02,South,169,5.0,14.0,56,0.00,,,0.03,Wunderground v.1.15,2013-06-26 19:53:00,
2013-06-26 15:54:00,90.4,72.0,30.02,ENE,67,5.0,14.0,55,0.00,,,0.03,Wunderground v.1.15,2013-06-26 19:54:00,
2013-06-26 15:56:00,90.3,72.5,30.02,ESE,104,5.0,14.0,56,0.00,,,0.03,Wunderground v.1.15,2013-06-26 19:56:00,
2013-06-26 15:58:00,90.1,72.8,30.02,SSE,154,5.0,14.0,57,0.00,,,0.03,Wunderground v.1.15,2013-06-26 19:58:00,
2013-06-26 16:00:00,90.0,73.2,30.03,East,98,5.0,5.0,58,0.00,,,0.03,Wunderground v.1.15,2013-06-26 20:00:00,
2013-06-26 16:01:00,90.0,73.2,30.02,SE,125,5.0,5.0,58,0.00,,,0.03,Wunderground v.1.15,2013-06-26 20:01:00,
2013-06-26 16:02:00,90.1,73.3,30.02,SSW,193,5.0,5.0,58,0.00,,,0.03,Wunderground v.1.15,2013-06-26 20:02:00,
2013-06-26 16:04:00,90.1,73.3,30.02,SE,124,5.0,11.0,58,0.00,,,0.03,Wunderground v.1.15,2013-06-26 20:04:00,
2013-06-26 16:08:00,89.9,73.1,30.02,South,170,5.0,11.0,58,0.00,,,0.03,Wunderground v.1.15,2013-06-26 20:08:00,
2013-06-26 16:09:00,89.8,73.0,30.02,East,80,5.0,11.0,58,0.00,,,0.03,Wunderground v.1.15,2013-06-26 20:09:00,
2013-06-26 16:12:00,89.7,73.5,30.03,ENE,78,5.0,6.0,59,0.00,,,0.03,Wunderground v.1.15,2013-06-26 20:12:00,
2013-06-26 16:13:00,89.7,73.5,30.02,ENE,60,5.0,6.0,59,0.00,,,0.03,Wunderground v.1.15,2013-06-26 20:13:00,
2013-06-26 16:14:00,89.6,73.9,30.03,ENE,64,5.0,6.0,60,0.00,,,0.03,Wunderground v.1.15,2013-06-26 20:14:00,
2013-06-26 16:16:00,89.7,74.0,30.03,SE,133,5.0,8.0,60,0.00,,,0.03,Wunderground v.1.15,2013-06-26 20:16:00,
2013-06-26 16:17:00,89.7,74.0,30.03,SE,145,5.0,8.0,60,0.00,,,0.03,Wunderground v.1.15,2013-06-26 20:17:00,
2013-06-26 16:20:00,89.6,73.4,30.03,South,189,5.0,7.0,59,0.00,,,0.03,Wunderground v.1.15,2013-06-26 20:20:00,
2013-06-26 16:21:00,89.5,72.8,30.03,SSE,153,5.0,7.0,58,0.00,,,0.03,Wunderground v.1.15,2013-06-26 20:21:00,
2013-06-26 16:23:00,89.3,73.6,30.03,East,94,5.0,10.0,60,0.00,,,0.03,Wunderground v.1.15,2013-06-26 20:23:00,
2013-06-26 16:26:00,89.2,73.5,30.02,SE,146,5.0,10.0,60,0.00,,,0.03,Wunderground v.1.15,2013-06-26 20:26:00,
2013-06-26 16:28:00,89.2,73.5,30.02,SSE,168,5.0,10.0,60,0.00,,,0.03,Wunderground v.1.15,2013-06-26 20:28:00,
2013-06-26 16:29:00,89.2,73.5,30.02,ESE,120,5.0,10.0,60,0.00,,,0.03,Wunderground v.1.15,2013-06-26 20:29:00,
2013-06-26 16:30:00,89.0,73.3,30.02,SE,124,6.0,7.0,60,0.00,,,0.03,Wunderground v.1.15,2013-06-26 20:30:00,
2013-06-26 16:31:00,88.9,73.2,30.02,East,94,6.0,11.0,60,0.00,,,0.03,Wunderground v.1.15,2013-06-26 20:31:00,
2013-06-26 16:34:00,88.9,74.2,30.02,SSE,164,5.0,11.0,62,0.00,,,0.03,Wunderground v.1.15,2013-06-26 20:34:00,
2013-06-26 16:37:00,89.0,74.3,30.02,SSE,159,5.0,11.0,62,0.00,,,0.03,Wunderground v.1.15,2013-06-26 20:37:00,
2013-06-26 16:41:00,88.5,74.3,30.02,East,98,5.0,9.0,63,0.00,,,0.03,Wunderground v.1.15,2013-06-26 20:41:00,
2013-06-26 16:42:00,88.5,74.3,30.02,East,98,5.0,11.0,63,0.00,,,0.03,Wunderground v.1.15,2013-06-26 20:42:00,
2013-06-26 16:45:00,88.4,73.7,30.02,ENE,73,5.0,11.0,62,0.00,,,0.03,Wunderground v.1.15,2013-06-26 20:45:00,
2013-06-26 16:48:00,88.3,74.6,30.02,SSE,163,4.0,11.0,64,0.00,,,0.03,Wunderground v.1.15,2013-06-26 20:48:00,
2013-06-26 16:50:00,88.2,74.5,30.02,ESE,110,5.0,5.0,64,0.00,,,0.03,Wunderground v.1.15,2013-06-26 20:50:00,
2013-06-26 16:51:00,88.1,74.8,30.02,East,95,5.0,11.0,65,0.00,,,0.03,Wunderground v.1.15,2013-06-26 20:51:00,
2013-06-26 16:55:00,87.9,74.7,30.01,ESE,122,5.0,11.0,65,0.00,,,0.03,Wunderground v.1.15,2013-06-26 20:55:00,
2013-06-26 16:56:00,87.9,74.7,30.02,SE,134,5.0,11.0,65,0.00,,,0.03,Wunderground v.1.15,2013-06-26 20:56:00,
2013-06-26 16:57:00,87.8,74.6,30.01,NNE,28,5.0,11.0,65,0.00,,,0.03,Wunderground v.1.15,2013-06-26 20:57:00,
2013-06-26 17:02:00,87.7,74.9,30.01,SE,143,5.0,6.0,66,0.00,,,0.03,Wunderground v.1.15,2013-06-26 21:02:00,
2013-06-26 17:04:00,87.6,74.4,30.02,ESE,106,5.0,7.0,65,0.00,,,0.03,Wunderground v.1.15,2013-06-26 21:04:00,
2013-06-26 17:05:00,87.6,74.8,30.02,SE,134,5.0,7.0,66,0.00,,,0.03,Wunderground v.1.15,2013-06-26 21:05:00,
2013-06-26 17:06:00,87.6,74.8,30.02,ESE,113,5.0,8.0,66,0.00,,,0.03,Wunderground v.1.15,2013-06-26 21:06:00,
2013-06-26 17:09:00,87.9,75.1,30.02,East,98,5.0,8.0,66,0.00,,,0.03,Wunderground v.1.15,2013-06-26 21:09:00,
2013-06-26 17:13:00,88.2,74.9,30.02,SE,131,4.0,7.0,65,0.00,,,0.03,Wunderground v.1.15,2013-06-26 21:13:00,
2013-06-26 17:15:00,88.3,75.5,30.02,ESE,111,4.0,7.0,66,0.00,,,0.03,Wunderground v.1.15,2013-06-26 21:15:00,
2013-06-26 17:18:00,88.0,75.2,30.02,SE,125,4.0,8.0,66,0.00,,,0.03,Wunderground v.1.15,2013-06-26 21:18:00,
2013-06-26 17:21:00,87.7,75.4,30.02,SE,144,5.0,5.0,67,0.00,,,0.03,Wunderground v.1.15,2013-06-26 21:21:00,
2013-06-26 17:22:00,87.7,75.8,30.02,East,98,4.0,5.0,68,0.00,,,0.03,Wunderground v.1.15,2013-06-26 21:22:00,
2013-06-26 17:24:00,87.7,75.4,30.02,ESE,119,4.0,5.0,67,0.00,,,0.03,Wunderground v.1.15,2013-06-26 21:24:00,
2013-06-26 17:25:00,87.7,75.4,30.02,SE,127,4.0,5.0,67,0.00,,,0.03,Wunderground v.1.15,2013-06-26 21:25:00,
2013-06-26 17:29:00,87.6,75.3,30.03,ESE,107,4.0,5.0,67,0.00,,,0.03,Wunderground v.1.15,2013-06-26 21:29:00,
2013-06-26 17:31:00,87.7,75.8,30.03,SSE,155,4.0,7.0,68,0.00,,,0.03,Wunderground v.1.15,2013-06-26 21:31:00,
2013-06-26 17:32:00,87.7,75.8,30.03,ESE,102,4.0,14.0,68,0.00,,,0.03,Wunderground v.1.15,2013-06-26 21:32:00,
2013-06-26 17:36:00,87.5,75.6,30.03,SE,129,4.0,14.0,68,0.00,,,0.03,Wunderground v.1.15,2013-06-26 21:36:00,
2013-06-26 17:37:00,87.6,75.7,30.03,SE,130,4.0,14.0,68,0.00,,,0.03,Wunderground v.1.15,2013-06-26 21:37:00,
2013-06-26 17:38:00,87.6,75.3,30.03,SE,134,4.0,14.0,67,0.00,,,0.03,Wunderground v.1.15,2013-06-26 21:38:00,
2013-06-26 17:40:00,87.5,75.2,30.03,ENE,77,4.0,14.0,67,0.00,,,0.03,Wunderground v.1.15,2013-06-26 21:40:00,
2013-06-26 17:41:00,87.4,75.1,30.03,SE,128,4.0,14.0,67,0.00,,,0.03,Wunderground v.1.15,2013-06-26 21:41:00,
2013-06-26 17:42:00,87.4,75.1,30.03,East,90,4.0,14.0,67,0.00,,,0.03,Wunderground v.1.15,2013-06-26 21:42:00,
2013-06-26 17:47:00,87.1,75.3,30.02,SE,131,4.0,14.0,68,0.00,,,0.03,Wunderground v.1.15,2013-06-26 21:47:00,
2013-06-26 17:48:00,87.0,75.2,30.02,SE,146,4.0,14.0,68,0.00,,,0.03,Wunderground v.1.15,2013-06-26 21:48:00,
2013-06-26 17:50:00,86.8,74.5,30.02,SE,138,4.0,4.0,67,0.00,,,0.03,Wunderground v.1.15,2013-06-26 21:50:00,
2013-06-26 17:51:00,86.8,74.5,30.02,ESE,115,4.0,14.0,67,0.00,,,0.03,Wunderground v.1.15,2013-06-26 21:51:00,
2013-06-26 17:53:00,86.8,74.5,30.01,SSE,150,4.0,14.0,67,0.00,,,0.03,Wunderground v.1.15,2013-06-26 21:53:00,
2013-06-26 17:56:00,86.7,74.9,30.01,East,87,4.0,14.0,68,0.00,,,0.03,Wunderground v.1.15,2013-06-26 21:56:00,
2013-06-26 17:58:00,86.7,74.9,30.01,SE,136,4.0,14.0,68,0.00,,,0.03,Wunderground v.1.15,2013-06-26 21:58:00,
2013-06-26 18:00:00,86.5,74.2,30.01,ESE,122,4.0,5.0,67,0.00,,,0.03,Wunderground v.1.15,2013-06-26 22:00:00,
2013-06-26 18:02:00,86.4,74.1,30.01,ESE,122,4.0,6.0,67,0.00,,,0.03,Wunderground v.1.15,2013-06-26 22:02:00,
2013-06-26 18:03:00,86.4,74.1,30.01,ENE,73,4.0,6.0,67,0.00,,,0.03,Wunderground v.1.15,2013-06-26 22:03:00,
2013-06-26 18:04:00,86.3,74.0,30.01,East,87,4.0,6.0,67,0.00,,,0.03,Wunderground v.1.15,2013-06-26 22:04:00,
2013-06-26 18:05:00,86.2,74.0,30.01,ESE,119,4.0,6.0,67,0.00,,,0.03,Wunderground v.1.15,2013-06-26 22:05:00,
2013-06-26 18:08:00,86.1,74.3,30.01,ESE,117,4.0,6.0,68,0.00,,,0.03,Wunderground v.1.15,2013-06-26 22:08:00,
2013-06-26 18:10:00,86.1,73.9,30.01,ESE,104,4.0,4.0,67,0.00,,,0.03,Wunderground v.1.15,2013-06-26 22:10:00,
2013-06-26 18:11:00,86.1,73.9,30.01,East,94,4.0,4.0,67,0.00,,,0.03,Wunderground v.1.15,2013-06-26 22:11:00,
2013-06-26 18:13:00,86.1,74.3,30.01,SE,133,3.0,4.0,68,0.00,,,0.03,Wunderground v.1.15,2013-06-26 22:13:00,
2013-06-26 18:16:00,86.1,74.3,30.01,ESE,123,3.0,6.0,68,0.00,,,0.03,Wunderground v.1.15,2013-06-26 22:16:00,
2013-06-26 18:17:00,86.1,74.3,30.01,SE,139,3.0,6.0,68,0.00,,,0.03,Wunderground v.1.15,2013-06-26 22:17:00,
2013-06-26 18:19:00,85.9,74.1,30.01,East,94,3.0,6.0,68,0.00,,,0.03,Wunderground v.1.15,2013-06-26 22:19:00,
2013-06-26 18:20:00,85.8,74.4,30.01,ESE,123,3.0,3.0,69,0.00,,,0.03,Wunderground v.1.15,2013-06-26 22:20:00,
2013-06-26 18:22:00,85.8,74.4,30.01,ESE,121,3.0,4.0,69,0.00,,,0.03,Wunderground v.1.15,2013-06-26 22:22:00,
2013-06-26 18:23:00,85.7,74.4,30.01,SE,124,3.0,5.0,69,0.00,,,0.03,Wunderground v.1.15,2013-06-26 22:23:00,
2013-06-26 18:26:00,85.6,73.8,30.01,SE,136,3.0,5.0,68,0.00,,,0.03,Wunderground v.1.15,2013-06-26 22:26:00,
2013-06-26 18:28:00,85.5,74.2,30.01,SSE,152,3.0,7.0,69,0.00,,,0.03,Wunderground v.1.15,2013-06-26 22:28:00,
2013-06-26 18:30:00,85.4,74.1,30.01,ESE,120,3.0,5.0,69,0.00,,,0.03,Wunderground v.1.15,2013-06-26 22:30:00,
2013-06-26 18:34:00,85.3,74.0,30.01,SE,139,4.0,10.0,69,0.00,,,0.03,Wunderground v.1.15,2013-06-26 22:34:00,
2013-06-26 18:35:00,85.2,74.3,30.00,ENE,70,4.0,10.0,70,0.00,,,0.03,Wunderground v.1.15,2013-06-26 22:35:00,
2013-06-26 18:37:00,85.2,73.4,30.00,SE,128,4.0,10.0,68,0.00,,,0.03,Wunderground v.1.15,2013-06-26 22:37:00,
2013-06-26 18:38:00,85.1,73.3,30.00,ESE,117,4.0,10.0,68,0.00,,,0.03,Wunderground v.1.15,2013-06-26 22:38:00,
2013-06-26 18:39:00,85.2,73.4,30.00,South,178,4.0,10.0,68,0.00,,,0.03,Wunderground v.1.15,2013-06-26 22:39:00,
2013-06-26 18:40:00,85.2,73.4,30.00,ESE,113,4.0,10.0,68,0.00,,,0.03,Wunderground v.1.15,2013-06-26 22:40:00,
2013-06-26 18:44:00,85.1,73.8,30.00,SE,146,4.0,10.0,69,0.00,,,0.03,Wunderground v.1.15,2013-06-26 22:44:00,
2013-06-26 18:45:00,85.1,73.8,30.00,East,86,4.0,10.0,69,0.00,,,0.03,Wunderground v.1.15,2013-06-26 22:45:00,
2013-06-26 18:46:00,85.1,73.3,30.00,SE,131,4.0,10.0,68,0.00,,,0.03,Wunderground v.1.15,2013-06-26 22:46:00,
2013-06-26 18:49:00,85.1,73.3,30.00,ESE,123,3.0,10.0,68,0.00,,,0.03,Wunderground v.1.15,2013-06-26 22:49:00,
2013-06-26 18:50:00,85.1,73.3,30.00,SE,139,3.0,10.0,68,0.00,,,0.03,Wunderground v.1.15,2013-06-26 22:50:00,
2013-06-26 18:52:00,85.1,73.3,30.00,SSE,162,3.0,10.0,68,0.00,,,0.03,Wunderground v.1.15,2013-06-26 22:52:00,
2013-06-26 18:56:00,85.0,73.7,30.00,East,95,3.0,10.0,69,0.00,,,0.03,Wunderground v.1.15,2013-06-26 22:56:00,
2013-06-26 18:58:00,85.0,73.7,30.00,SE,130,3.0,10.0,69,0.00,,,0.03,Wunderground v.1.15,2013-06-26 22:58:00,
2013-06-26 19:00:00,85.0,74.1,30.00,ESE,119,3.0,3.0,70,0.00,,,0.03,Wunderground v.1.15,2013-06-26 23:00:00,
2013-06-26 19:02:00,84.9,74.0,30.00,SSW,200,3.0,4.0,70,0.00,,,0.03,Wunderground v.1.15,2013-06-26 23:02:00,
2013-06-26 19:04:00,84.9,74.4,30.00,SE,129,3.0,4.0,71,0.00,,,0.03,Wunderground v.1.15,2013-06-26 23:04:00,
2013-06-26 19:07:00,84.8,74.3,30.00,ESE,121,3.0,7.0,71,0.00,,,0.03,Wunderground v.1.15,2013-06-26 23:07:00,
2013-06-26 19:08:00,84.7,74.3,30.00,East,101,3.0,7.0,71,0.00,,,0.03,Wunderground v.1.15,2013-06-26 23:08:00,
2013-06-26 19:09:00,84.7,74.3,30.00,SE,141,3.0,7.0,71,0.00,,,0.03,Wunderground v.1.15,2013-06-26 23:09:00,
2013-06-26 19:11:00,84.6,74.6,30.00,ESE,103,3.0,3.0,72,0.00,,,0.03,Wunderground v.1.15,2013-06-26 23:11:00,
2013-06-26 19:13:00,84.6,74.6,30.00,South,174,3.0,3.0,72,0.00,,,0.03,Wunderground v.1.15,2013-06-26 23:13:00,
2013-06-26 19:14:00,84.5,74.5,30.00,South,174,3.0,4.0,72,0.00,,,0.03,Wunderground v.1.15,2013-06-26 23:14:00,
2013-06-26 19:16:00,84.5,74.1,30.00,SE,143,4.0,5.0,71,0.00,,,0.03,Wunderground v.1.15,2013-06-26 23:16:00,
2013-06-26 19:18:00,84.4,73.5,30.01,ENE,73,4.0,5.0,70,0.00,,,0.03,Wunderground v.1.15,2013-06-26 23:18:00,
2013-06-26 19:20:00,84.3,73.4,30.01,SE,126,3.0,3.0,70,0.00,,,0.03,Wunderground v.1.15,2013-06-26 23:20:00,
2013-06-26 19:24:00,84.3,73.9,30.01,ENE,70,3.0,5.0,71,0.00,,,0.03,Wunderground v.1.15,2013-06-26 23:24:00,
2013-06-26 19:26:00,84.3,73.4,30.01,ESE,117,3.0,5.0,70,0.00,,,0.03,Wunderground v.1.15,2013-06-26 23:26:00,
2013-06-26 19:29:00,84.3,73.4,30.01,ESE,113,3.0,5.0,70,0.00,,,0.03,Wunderground v.1.15,2013-06-26 23:29:00,
2013-06-26 19:30:00,84.3,73.4,30.01,ENE,63,2.0,2.0,70,0.00,,,0.03,Wunderground v.1.15,2013-06-26 23:30:00,
2013-06-26 19:33:00,84.3,73.0,30.01,SSE,148,2.0,9.0,69,0.00,,,0.03,Wunderground v.1.15,2013-06-26 23:33:00,
2013-06-26 19:34:00,84.3,73.0,30.01,SE,128,2.0,9.0,69,0.00,,,0.03,Wunderground v.1.15,2013-06-26 23:34:00,
2013-06-26 19:35:00,84.3,73.0,30.01,South,172,3.0,9.0,69,0.00,,,0.03,Wunderground v.1.15,2013-06-26 23:35:00,
2013-06-26 19:37:00,84.3,72.6,30.01,East,79,3.0,9.0,68,0.00,,,0.03,Wunderground v.1.15,2013-06-26 23:37:00,
2013-06-26 19:41:00,84.1,72.4,30.00,ESE,108,4.0,9.0,68,0.00,,,0.03,Wunderground v.1.15,2013-06-26 23:41:00,
2013-06-26 19:45:00,84.1,73.3,30.01,South,186,4.0,9.0,70,0.00,,,0.03,Wunderground v.1.15,2013-06-26 23:45:00,
2013-06-26 19:46:00,84.0,73.6,30.00,SE,131,4.0,9.0,71,0.00,,,0.03,Wunderground v.1.15,2013-06-26 23:46:00,
2013-06-26 19:48:00,84.0,73.6,30.01,NE,56,4.0,9.0,71,0.00,,,0.03,Wunderground v.1.15,2013-06-26 23:48:00,
2013-06-26 19:51:00,83.9,73.5,30.01,ESE,121,3.0,9.0,71,0.00,,,0.03,Wunderground v.1.15,2013-06-26 23:51:00,
2013-06-26 19:52:00,83.9,73.9,30.01,ESE,122,3.0,9.0,72,0.00,,,0.03,Wunderground v.1.15,2013-06-26 23:52:00,
2013-06-26 19:53:00,83.9,73.9,30.01,SE,140,3.0,9.0,72,0.00,,,0.03,Wunderground v.1.15,2013-06-26 23:53:00,
2013-06-26 19:54:00,83.9,73.9,30.01,ESE,120,3.0,9.0,72,0.00,,,0.03,Wunderground v.1.15,2013-06-26 23:54:00,
2013-06-26 19:58:00,83.8,74.2,30.02,SE,128,3.0,9.0,73,0.00,,,0.03,Wunderground v.1.15,2013-06-26 23:58:00,
2013-06-26 19:59:00,83.8,74.2,30.02,East,94,3.0,9.0,73,0.00,,,0.03,Wunderground v.1.15,2013-06-26 23:59:00,
2013-06-26 20:00:00,83.8,74.2,30.02,ESE,118,3.0,3.0,73,0.00,,,0.03,Wunderground v.1.15,2013-06-27 00:00:00,
2013-06-26 20:04:00,83.8,74.2,30.02,SE,141,2.0,4.0,73,0.00,,,0.03,Wunderground v.1.15,2013-06-27 00:04:00,
2013-06-26 20:05:00,83.7,74.5,30.02,ESE,110,2.0,4.0,74,0.00,,,0.03,Wunderground v.1.15,2013-06-27 00:05:00,
2013-06-26 20:06:00,83.7,74.5,30.03,SE,140,2.0,4.0,74,0.00,,,0.03,Wunderground v.1.15,2013-06-27 00:06:00,
2013-06-26 20:11:00,83.6,74.8,30.03,ESE,118,2.0,2.0,75,0.00,,,0.03,Wunderground v.1.15,2013-06-27 00:11:00,
2013-06-26 20:12:00,83.6,74.8,30.03,ESE,117,2.0,3.0,75,0.00,,,0.03,Wunderground v.1.15,2013-06-27 00:12:00,
2013-06-26 20:13:00,83.6,74.8,30.03,East,96,2.0,3.0,75,0.00,,,0.03,Wunderground v.1.15,2013-06-27 00:13:00,
2013-06-26 20:16:00,83.6,74.8,30.03,ESE,117,2.0,3.0,75,0.00,,,0.03,Wunderground v.1.15,2013-06-27 00:16:00,
2013-06-26 20:18:00,83.6,74.8,30.03,SSE,148,2.0,4.0,75,0.00,,,0.03,Wunderground v.1.15,2013-06-27 00:18:00,
2013-06-26 20:19:00,83.5,74.7,30.03,SE,134,2.0,4.0,75,0.00,,,0.03,Wunderground v.1.15,2013-06-27 00:19:00,
2013-06-26 20:20:00,83.5,74.7,30.03,SE,136,3.0,3.0,75,0.00,,,0.03,Wunderground v.1.15,2013-06-27 00:20:00,
2013-06-26 20:24:00,83.4,74.6,30.03,SSE,157,3.0,3.0,75,0.00,,,0.03,Wunderground v.1.15,2013-06-27 00:24:00,
2013-06-26 20:25:00,83.4,75.0,30.04,ESE,120,3.0,3.0,76,0.00,,,0.03,Wunderground v.1.15,2013-06-27 00:25:00,
2013-06-26 20:27:00,83.4,75.0,30.04,SSE,158,3.0,3.0,76,0.00,,,0.03,Wunderground v.1.15,2013-06-27 00:27:00,
2013-06-26 20:31:00,83.3,74.5,30.04,ESE,123,2.0,10.0,75,0.00,,,0.03,Wunderground v.1.15,2013-06-27 00:31:00,
2013-06-26 20:32:00,83.3,74.5,30.04,SE,131,2.0,10.0,75,0.00,,,0.03,Wunderground v.1.15,2013-06-27 00:32:00,
2013-06-26 20:33:00,83.3,74.5,30.04,ESE,115,2.0,10.0,75,0.00,,,0.03,Wunderground v.1.15,2013-06-27 00:33:00,
2013-06-26 20:34:00,83.3,74.1,30.04,SW,233,2.0,10.0,74,0.00,,,0.03,Wunderground v.1.15,2013-06-27 00:34:00,
2013-06-26 20:38:00,83.2,73.6,30.04,South,174,2.0,10.0,73,0.00,,,0.03,Wunderground v.1.15,2013-06-27 00:38:00,
2013-06-26 20:39:00,83.2,73.6,30.04,SE,125,2.0,10.0,73,0.00,,,0.03,Wunderground v.1.15,2013-06-27 00:39:00,
2013-06-26 20:40:00,83.2,73.6,30.04,East,98,2.0,10.0,73,0.00,,,0.03,Wunderground v.1.15,2013-06-27 00:40:00,
2013-06-26 20:43:00,83.2,74.0,30.04,South,172,2.0,10.0,74,0.00,,,0.03,Wunderground v.1.15,2013-06-27 00:43:00,
2013-06-26 20:45:00,83.2,74.0,30.04,SE,139,2.0,10.0,74,0.00,,,0.03,Wunderground v.1.15,2013-06-27 00:45:00,
2013-06-26 20:46:00,83.2,74.0,30.04,SSE,168,2.0,10.0,74,0.00,,,0.03,Wunderground v.1.15,2013-06-27 00:46:00,
2013-06-26 20:47:00,83.2,74.0,30.04,South,188,2.0,10.0,74,0.00,,,0.03,Wunderground v.1.15,2013-06-27 00:47:00,
2013-06-26 20:51:00,83.2,74.0,30.04,SSE,155,1.0,10.0,74,0.00,,,0.03,Wunderground v.1.15,2013-06-27 00:51:00,
2013-06-26 20:52:00,83.2,74.0,30.04,SE,137,2.0,10.0,74,0.00,,,0.03,Wunderground v.1.15,2013-06-27 00:52:00,
2013-06-26 20:53:00,83.1,73.9,30.04,SE,145,2.0,10.0,74,0.00,,,0.03,Wunderground v.1.15,2013-06-27 00:53:00,
2013-06-26 20:57:00,83.1,74.4,30.04,South,186,2.0,10.0,75,0.00,,,0.03,Wunderground v.1.15,2013-06-27 00:57:00,
2013-06-26 20:58:00,83.1,74.4,30.04,SSE,161,2.0,10.0,75,0.00,,,0.03,Wunderground v.1.15,2013-06-27 00:58:00,
2013-06-26 21:00:00,83.1,74.4,30.04,SSE,147,2.0,2.0,75,0.00,,,0.03,Wunderground v.1.15,2013-06-27 01:00:00,
2013-06-26 21:02:00,83.1,74.4,30.04,SSW,212,1.0,2.0,75,0.00,,,0.03,Wunderground v.1.15,2013-06-27 01:02:00,
2013-06-26 21:04:00,83.0,74.3,30.04,SE,134,1.0,2.0,75,0.00,,,0.03,Wunderground v.1.15,2013-06-27 01:04:00,
2013-06-26 21:06:00,83.0,74.3,30.03,SE,141,1.0,2.0,75,0.00,,,0.03,Wunderground v.1.15,2013-06-27 01:06:00,
2013-06-26 21:09:00,82.9,74.6,30.03,SE,134,1.0,3.0,76,0.00,,,0.03,Wunderground v.1.15,2013-06-27 01:09:00,
2013-06-26 21:10:00,82.9,74.6,30.03,SSW,200,1.0,1.0,76,0.00,,,0.03,Wunderground v.1.15,2013-06-27 01:10:00,
2013-06-26 21:11:00,82.9,74.6,30.03,SE,127,1.0,2.0,76,0.00,,,0.03,Wunderground v.1.15,2013-06-27 01:11:00,
2013-06-26 21:14:00,82.9,74.6,30.03,SE,139,1.0,2.0,76,0.00,,,0.03,Wunderground v.1.15,2013-06-27 01:14:00,
2013-06-26 21:15:00,82.9,74.6,30.03,SSE,158,1.0,2.0,76,0.00,,,0.03,Wunderground v.1.15,2013-06-27 01:15:00,
2013-06-26 21:16:00,82.9,74.6,30.03,SE,141,1.0,2.0,76,0.00,,,0.03,Wunderground v.1.15,2013-06-27 01:16:00,
2013-06-26 21:19:00,82.8,74.5,30.04,ESE,120,1.0,2.0,76,0.00,,,0.03,Wunderground v.1.15,2013-06-27 01:19:00,
2013-06-26 21:20:00,82.8,74.5,30.03,SE,129,1.0,2.0,76,0.00,,,0.03,Wunderground v.1.15,2013-06-27 01:20:00,
2013-06-26 21:22:00,82.8,74.5,30.03,SE,139,1.0,2.0,76,0.00,,,0.03,Wunderground v.1.15,2013-06-27 01:22:00,
2013-06-26 21:25:00,82.8,74.5,30.04,ESE,116,1.0,4.0,76,0.00,,,0.03,Wunderground v.1.15,2013-06-27 01:25:00,
2013-06-26 21:28:00,82.8,73.7,30.04,SE,131,2.0,4.0,74,0.00,,,0.03,Wunderground v.1.15,2013-06-27 01:28:00,
2013-06-26 21:29:00,82.8,73.7,30.04,SE,128,2.0,4.0,74,0.00,,,0.03,Wunderground v.1.15,2013-06-27 01:29:00,
2013-06-26 21:31:00,82.8,73.3,30.04,SE,127,1.0,6.0,73,0.00,,,0.03,Wunderground v.1.15,2013-06-27 01:31:00,
2013-06-26 21:32:00,82.8,73.3,30.03,East,97,1.0,6.0,73,0.00,,,0.03,Wunderground v.1.15,2013-06-27 01:32:00,
2013-06-26 21:33:00,82.7,73.2,30.03,SE,135,2.0,6.0,73,0.00,,,0.03,Wunderground v.1.15,2013-06-27 01:33:00,
2013-06-26 21:35:00,82.7,73.2,30.03,SE,138,2.0,6.0,73,0.00,,,0.03,Wunderground v.1.15,2013-06-27 01:35:00,
2013-06-26 21:39:00,82.7,73.2,30.03,ESE,118,2.0,6.0,73,0.00,,,0.03,Wunderground v.1.15,2013-06-27 01:39:00,
2013-06-26 21:40:00,82.7,73.2,30.03,South,183,2.0,6.0,73,0.00,,,0.03,Wunderground v.1.15,2013-06-27 01:40:00,
2013-06-26 21:41:00,82.7,73.2,30.03,SE,146,2.0,6.0,73,0.00,,,0.03,Wunderground v.1.15,2013-06-27 01:41:00,
2013-06-26 21:44:00,82.7,73.2,30.03,SE,124,2.0,6.0,73,0.00,,,0.03,Wunderground v.1.15,2013-06-27 01:44:00,
2013-06-26 21:45:00,82.8,73.3,30.03,East,88,2.0,6.0,73,0.00,,,0.03,Wunderground v.1.15,2013-06-27 01:45:00,
2013-06-26 21:46:00,82.7,73.2,30.03,SE,134,2.0,6.0,73,0.00,,,0.03,Wunderground v.1.15,2013-06-27 01:46:00,
2013-06-26 21:47:00,82.7,73.2,30.03,SE,136,2.0,6.0,73,0.00,,,0.03,Wunderground v.1.15,2013-06-27 01:47:00,
2013-06-26 21:50:00,82.7,73.2,30.03,ESE,122,2.0,2.0,73,0.00,,,0.03,Wunderground v.1.15,2013-06-27 01:50:00,
2013-06-26 21:51:00,82.7,73.2,30.03,SE,134,2.0,6.0,73,0.00,,,0.03,Wunderground v.1.15,2013-06-27 01:51:00,
2013-06-26 21:52:00,82.7,73.2,30.03,ESE,111,2.0,6.0,73,0.00,,,0.03,Wunderground v.1.15,2013-06-27 01:52:00,
2013-06-26 21:55:00,82.7,73.6,30.03,SE,135,2.0,6.0,74,0.00,,,0.03,Wunderground v.1.15,2013-06-27 01:55:00,
2013-06-26 21:56:00,82.7,73.6,30.03,SE,127,2.0,6.0,74,0.00,,,0.03,Wunderground v.1.15,2013-06-27 01:56:00,
2013-06-26 21:57:00,82.6,73.5,30.03,SE,137,2.0,6.0,74,0.00,,,0.03,Wunderground v.1.15,2013-06-27 01:57:00,
2013-06-26 21:58:00,82.6,73.5,30.03,SE,129,1.0,6.0,74,0.00,,,0.03,Wunderground v.1.15,2013-06-27 01:58:00,
2013-06-26 22:03:00,82.6,73.9,30.03,SE,128,2.0,2.0,75,0.00,,,0.03,Wunderground v.1.15,2013-06-27 02:03:00,
2013-06-26 22:04:00,82.6,73.9,30.03,South,176,2.0,2.0,75,0.00,,,0.03,Wunderground v.1.15,2013-06-27 02:04:00,
2013-06-26 22:05:00,82.6,73.9,30.03,SE,132,2.0,2.0,75,0.00,,,0.03,Wunderground v.1.15,2013-06-27 02:05:00,
2013-06-26 22:08:00,82.6,73.9,30.03,SSE,148,1.0,4.0,75,0.00,,,0.03,Wunderground v.1.15,2013-06-27 02:08:00,
2013-06-26 22:10:00,82.6,74.3,30.03,ESE,111,2.0,2.0,76,0.00,,,0.03,Wunderground v.1.15,2013-06-27 02:10:00,
2013-06-26 22:13:00,82.6,74.3,30.03,SSE,162,2.0,3.0,76,0.00,,,0.03,Wunderground v.1.15,2013-06-27 02:13:00,
2013-06-26 22:14:00,82.6,74.3,30.03,SE,138,2.0,3.0,76,0.00,,,0.03,Wunderground v.1.15,2013-06-27 02:14:00,
2013-06-26 22:15:00,82.6,74.3,30.03,SE,134,2.0,3.0,76,0.00,,,0.03,Wunderground v.1.15,2013-06-27 02:15:00,
2013-06-26 22:16:00,82.5,74.2,30.03,SE,127,3.0,3.0,76,0.00,,,0.03,Wunderground v.1.15,2013-06-27 02:16:00,
2013-06-26 22:18:00,82.5,74.2,30.04,SE,129,2.0,4.0,76,0.00,,,0.03,Wunderground v.1.15,2013-06-27 02:18:00,
2013-06-26 22:19:00,82.5,74.2,30.03,SE,139,3.0,4.0,76,0.00,,,0.03,Wunderground v.1.15,2013-06-27 02:19:00,
2013-06-26 22:22:00,82.5,74.2,30.03,SE,126,2.0,2.0,76,0.00,,,0.03,Wunderground v.1.15,2013-06-27 02:22:00,
2013-06-26 22:23:00,82.5,74.2,30.03,ENE,77,2.0,2.0,76,0.00,,,0.03,Wunderground v.1.15,2013-06-27 02:23:00,
2013-06-26 22:24:00,82.6,74.3,30.03,SE,145,2.0,3.0,76,0.00,,,0.03,Wunderground v.1.15,2013-06-27 02:24:00,
2013-06-26 22:25:00,82.5,74.2,30.03,ESE,110,2.0,3.0,76,0.00,,,0.03,Wunderground v.1.15,2013-06-27 02:25:00,
2013-06-26 22:29:00,82.5,74.6,30.03,ESE,107,2.0,3.0,77,0.00,,,0.03,Wunderground v.1.15,2013-06-27 02:29:00,
2013-06-26 22:30:00,82.5,74.6,30.03,ESE,110,2.0,2.0,77,0.00,,,0.03,Wunderground v.1.15,2013-06-27 02:30:00,
2013-06-26 22:32:00,82.5,74.6,30.03,ENE,77,2.0,5.0,77,0.00,,,0.03,Wunderground v.1.15,2013-06-27 02:32:00,
2013-06-26 22:34:00,82.5,74.6,30.04,SE,134,2.0,5.0,77,0.00,,,0.03,Wunderground v.1.15,2013-06-27 02:34:00,
2013-06-26 22:35:00,82.5,74.6,30.03,SE,131,2.0,5.0,77,0.00,,,0.03,Wunderground v.1.15,2013-06-27 02:35:00,
2013-06-26 22:39:00,82.5,74.6,30.04,ESE,108,2.0,5.0,77,0.00,,,0.03,Wunderground v.1.15,2013-06-27 02:39:00,
2013-06-26 22:40:00,82.5,74.6,30.04,SE,131,2.0,2.0,77,0.00,,,0.03,Wunderground v.1.15,2013-06-27 02:40:00,
2013-06-26 22:41:00,82.5,74.6,30.04,SE,129,2.0,5.0,77,0.00,,,0.03,Wunderground v.1.15,2013-06-27 02:41:00,
2013-06-26 22:44:00,82.4,74.5,30.04,ESE,121,2.0,5.0,77,0.00,,,0.03,Wunderground v.1.15,2013-06-27 02:44:00,
2013-06-26 22:46:00,82.4,74.8,30.04,ESE,118,2.0,5.0,78,0.00,,,0.03,Wunderground v.1.15,2013-06-27 02:46:00,
2013-06-26 22:47:00,82.4,74.8,30.04,SE,129,2.0,5.0,78,0.00,,,0.03,Wunderground v.1.15,2013-06-27 02:47:00,
2013-06-26 22:48:00,82.4,74.8,30.03,SE,134,1.0,5.0,78,0.00,,,0.03,Wunderground v.1.15,2013-06-27 02:48:00,
2013-06-26 22:52:00,82.4,74.8,30.04,South,172,2.0,5.0,78,0.00,,,0.03,Wunderground v.1.15,2013-06-27 02:52:00,
2013-06-26 22:53:00,82.4,74.8,30.03,South,176,2.0,5.0,78,0.00,,,0.03,Wunderground v.1.15,2013-06-27 02:53:00,
2013-06-26 22:56:00,82.5,74.9,30.03,ENE,71,2.0,6.0,78,0.00,,,0.03,Wunderground v.1.15,2013-06-27 02:56:00,
2013-06-26 22:58:00,82.4,74.8,30.03,SE,128,2.0,6.0,78,0.00,,,0.03,Wunderground v.1.15,2013-06-27 02:58:00,
2013-06-26 22:59:00,82.4,74.8,30.03,SE,141,2.0,6.0,78,0.00,,,0.03,Wunderground v.1.15,2013-06-27 02:59:00,
2013-06-26 23:01:00,82.4,74.8,30.03,ENE,66,2.0,3.0,78,0.00,,,0.03,Wunderground v.1.15,2013-06-27 03:01:00,
2013-06-26 23:04:00,82.4,74.8,30.03,ESE,105,2.0,3.0,78,0.00,,,0.03,Wunderground v.1.15,2013-06-27 03:04:00,
2013-06-26 23:05:00,82.4,74.8,30.03,SE,146,2.0,3.0,78,0.00,,,0.03,Wunderground v.1.15,2013-06-27 03:05:00,
2013-06-26 23:06:00,82.4,74.8,30.03,SE,131,2.0,3.0,78,0.00,,,0.03,Wunderground v.1.15,2013-06-27 03:06:00,
2013-06-26 23:07:00,82.4,74.8,30.03,SE,129,2.0,3.0,78,0.00,,,0.03,Wunderground v.1.15,2013-06-27 03:07:00,
2013-06-26 23:08:00,82.4,74.8,30.03,SE,133,3.0,3.0,78,0.00,,,0.03,Wunderground v.1.15,2013-06-27 03:08:00,
2013-06-26 23:12:00,82.4,74.8,30.03,SE,139,3.0,5.0,78,0.00,,,0.03,Wunderground v.1.15,2013-06-27 03:12:00,
2013-06-26 23:13:00,82.4,74.8,30.03,SSE,154,3.0,5.0,78,0.00,,,0.03,Wunderground v.1.15,2013-06-27 03:13:00,
2013-06-26 23:16:00,82.4,75.2,30.03,SE,124,2.0,5.0,79,0.00,,,0.03,Wunderground v.1.15,2013-06-27 03:16:00,
2013-06-26 23:18:00,82.4,75.2,30.03,SE,128,2.0,5.0,79,0.00,,,0.03,Wunderground v.1.15,2013-06-27 03:18:00,
2013-06-26 23:21:00,82.3,75.1,30.03,ESE,111,2.0,3.0,79,0.00,,,0.03,Wunderground v.1.15,2013-06-27 03:21:00,
2013-06-26 23:22:00,82.3,75.1,30.03,ESE,120,3.0,3.0,79,0.00,,,0.03,Wunderground v.1.15,2013-06-27 03:22:00,
2013-06-26 23:24:00,82.3,75.1,30.03,SE,139,2.0,3.0,79,0.00,,,0.03,Wunderground v.1.15,2013-06-27 03:24:00,
2013-06-26 23:27:00,82.3,75.1,30.03,SE,126,3.0,6.0,79,0.00,,,0.03,Wunderground v.1.15,2013-06-27 03:27:00,
2013-06-26 23:28:00,82.3,75.1,30.03,SSE,148,2.0,6.0,79,0.00,,,0.03,Wunderground v.1.15,2013-06-27 03:28:00,
2013-06-26 23:29:00,82.3,75.1,30.03,SE,140,2.0,6.0,79,0.00,,,0.03,Wunderground v.1.15,2013-06-27 03:29:00,
2013-06-26 23:32:00,82.3,75.1,30.03,SE,130,2.0,6.0,79,0.00,,,0.03,Wunderground v.1.15,2013-06-27 03:32:00,
2013-06-26 23:34:00,82.3,75.1,30.03,ESE,121,2.0,6.0,79,0.00,,,0.03,Wunderground v.1.15,2013-06-27 03:34:00,
2013-06-26 23:36:00,82.3,75.1,30.03,SE,134,2.0,6.0,79,0.00,,,0.03,Wunderground v.1.15,2013-06-27 03:36:00,
2013-06-26 23:38:00,82.3,75.1,30.02,ESE,115,2.0,6.0,79,0.00,,,0.03,Wunderground v.1.15,2013-06-27 03:38:00,
2013-06-26 23:39:00,82.2,75.0,30.02,ESE,107,2.0,6.0,79,0.00,,,0.03,Wunderground v.1.15,2013-06-27 03:39:00,
2013-06-26 23:41:00,82.2,75.0,30.03,SE,145,1.0,6.0,79,0.00,,,0.03,Wunderground v.1.15,2013-06-27 03:41:00,
2013-06-26 23:43:00,82.2,75.0,30.03,SE,136,1.0,6.0,79,0.00,,,0.03,Wunderground v.1.15,2013-06-27 03:43:00,
2013-06-26 23:46:00,82.2,75.0,30.02,ESE,117,1.0,6.0,79,0.00,,,0.03,Wunderground v.1.15,2013-06-27 03:46:00,
2013-06-26 23:47:00,82.2,75.0,30.03,SE,133,1.0,6.0,79,0.00,,,0.03,Wunderground v.1.15,2013-06-27 03:47:00,
2013-06-26 23:49:00,82.2,75.0,30.02,SE,129,2.0,6.0,79,0.00,,,0.03,Wunderground v.1.15,2013-06-27 03:49:00,
2013-06-26 23:50:00,82.2,75.0,30.02,SE,129,2.0,6.0,79,0.00,,,0.03,Wunderground v.1.15,2013-06-27 03:50:00,
2013-06-26 23:51:00,82.2,75.0,30.02,SE,124,2.0,6.0,79,0.00,,,0.03,Wunderground v.1.15,2013-06-27 03:51:00,
2013-06-26 23:55:00,82.1,74.9,30.02,ENE,78,1.0,6.0,79,0.00,,,0.03,Wunderground v.1.15,2013-06-27 03:55:00,
2013-06-26 23:57:00,82.1,75.3,30.02,SE,129,1.0,6.0,80,0.00,,,0.03,Wunderground v.1.15,2013-06-27 03:57:00,
2013-06-26 23:58:00,82.1,75.3,30.02,East,90,1.0,6.0,80,0.00,,,0.03,Wunderground v.1.15,2013-06-27 03:58:00,
2013-06-26 23:59:00,82.1,75.3,30.02,East,88,1.0,6.0,80,0.00,,,0.03,Wunderground v.1.15,2013-06-27 03:59:00,